<?xml version="1.0" encoding="UTF-8" standalone="no" ?>
<gpx xmlns="http://www.topografix.com/GPX/1/1" xmlns:xsi="http://www.w3.org/2001/XMLSchema-instance" xsi:schemaLocation="http://www.topografix.com/GPX/1/1 http://www.topografix.com/GPX/1/1/gpx.xsd" version="1.1" creator="VisuGPX - https://www.visugpx.com">
  <metadata>
    <name>Sentier Imbut</name>
    <desc><![CDATA[Sentier Imbut
]]></desc>
  </metadata>
  <trk>
    <name><![CDATA[Aiguines Course à pied]]></name>
    <trkseg>
      <trkpt lat="43.73685" lon="6.34614">
        <ele>801.59997558594</ele>
        <time>2017-05-24T05:51:12.000Z</time>
      </trkpt>
      <trkpt lat="43.73685" lon="6.34613">
        <ele>801.59997558594</ele>
        <time>2017-05-24T05:51:15.000Z</time>
      </trkpt>
      <trkpt lat="43.73685" lon="6.34613">
        <ele>801.59997558594</ele>
        <time>2017-05-24T05:51:16.000Z</time>
      </trkpt>
      <trkpt lat="43.73694" lon="6.3461">
        <ele>801.20001220703</ele>
        <time>2017-05-24T05:53:02.000Z</time>
      </trkpt>
      <trkpt lat="43.73698" lon="6.34609">
        <ele>801.20001220703</ele>
        <time>2017-05-24T05:53:03.000Z</time>
      </trkpt>
      <trkpt lat="43.73712" lon="6.34597">
        <ele>799.79998779297</ele>
        <time>2017-05-24T05:53:07.000Z</time>
      </trkpt>
      <trkpt lat="43.73716" lon="6.34567">
        <ele>798.59997558594</ele>
        <time>2017-05-24T05:53:24.000Z</time>
      </trkpt>
      <trkpt lat="43.73713" lon="6.3454">
        <ele>796.79998779297</ele>
        <time>2017-05-24T05:53:38.000Z</time>
      </trkpt>
      <trkpt lat="43.73727" lon="6.34519">
        <ele>794.79998779297</ele>
        <time>2017-05-24T05:53:53.000Z</time>
      </trkpt>
      <trkpt lat="43.73755" lon="6.34488">
        <ele>793.59997558594</ele>
        <time>2017-05-24T05:54:17.000Z</time>
      </trkpt>
      <trkpt lat="43.73783" lon="6.34459">
        <ele>793.40002441406</ele>
        <time>2017-05-24T05:54:48.000Z</time>
      </trkpt>
      <trkpt lat="43.73786" lon="6.34458">
        <ele>793.40002441406</ele>
        <time>2017-05-24T05:56:04.000Z</time>
      </trkpt>
      <trkpt lat="43.73788" lon="6.34457">
        <ele>793.40002441406</ele>
        <time>2017-05-24T05:56:05.000Z</time>
      </trkpt>
      <trkpt lat="43.73813" lon="6.34441">
        <ele>793.20001220703</ele>
        <time>2017-05-24T05:56:18.000Z</time>
      </trkpt>
      <trkpt lat="43.73816" lon="6.34439">
        <ele>793.20001220703</ele>
        <time>2017-05-24T05:56:54.000Z</time>
      </trkpt>
      <trkpt lat="43.73819" lon="6.34438">
        <ele>793.20001220703</ele>
        <time>2017-05-24T05:56:55.000Z</time>
      </trkpt>
      <trkpt lat="43.7382" lon="6.34437">
        <ele>793.20001220703</ele>
        <time>2017-05-24T05:56:56.000Z</time>
      </trkpt>
      <trkpt lat="43.73823" lon="6.34436">
        <ele>793.20001220703</ele>
        <time>2017-05-24T05:57:09.000Z</time>
      </trkpt>
      <trkpt lat="43.73824" lon="6.34435">
        <ele>793.20001220703</ele>
        <time>2017-05-24T05:57:10.000Z</time>
      </trkpt>
      <trkpt lat="43.73835" lon="6.3443">
        <ele>793.40002441406</ele>
        <time>2017-05-24T05:57:17.000Z</time>
      </trkpt>
      <trkpt lat="43.73845" lon="6.34423">
        <ele>793.40002441406</ele>
        <time>2017-05-24T05:57:28.000Z</time>
      </trkpt>
      <trkpt lat="43.73848" lon="6.34421">
        <ele>793.40002441406</ele>
        <time>2017-05-24T05:57:29.000Z</time>
      </trkpt>
      <trkpt lat="43.73882" lon="6.34405">
        <ele>790.40002441406</ele>
        <time>2017-05-24T05:58:08.000Z</time>
      </trkpt>
      <trkpt lat="43.73884" lon="6.34404">
        <ele>790.20001220703</ele>
        <time>2017-05-24T05:58:13.000Z</time>
      </trkpt>
      <trkpt lat="43.73886" lon="6.34402">
        <ele>789.79998779297</ele>
        <time>2017-05-24T05:58:38.000Z</time>
      </trkpt>
      <trkpt lat="43.73888" lon="6.34401">
        <ele>789.59997558594</ele>
        <time>2017-05-24T05:58:39.000Z</time>
      </trkpt>
      <trkpt lat="43.73904" lon="6.34387">
        <ele>786</ele>
        <time>2017-05-24T05:58:47.000Z</time>
      </trkpt>
      <trkpt lat="43.73911" lon="6.34382">
        <ele>784.59997558594</ele>
        <time>2017-05-24T05:58:56.000Z</time>
      </trkpt>
      <trkpt lat="43.7392" lon="6.34382">
        <ele>783</ele>
        <time>2017-05-24T06:00:12.000Z</time>
      </trkpt>
      <trkpt lat="43.73925" lon="6.34382">
        <ele>781.79998779297</ele>
        <time>2017-05-24T06:00:13.000Z</time>
      </trkpt>
      <trkpt lat="43.73944" lon="6.34384">
        <ele>775.40002441406</ele>
        <time>2017-05-24T06:00:21.000Z</time>
      </trkpt>
      <trkpt lat="43.73946" lon="6.34382">
        <ele>774.40002441406</ele>
        <time>2017-05-24T06:01:53.000Z</time>
      </trkpt>
      <trkpt lat="43.73947" lon="6.34379">
        <ele>773.59997558594</ele>
        <time>2017-05-24T06:01:54.000Z</time>
      </trkpt>
      <trkpt lat="43.73955" lon="6.34362">
        <ele>765.79998779297</ele>
        <time>2017-05-24T06:01:59.000Z</time>
      </trkpt>
      <trkpt lat="43.73958" lon="6.34355">
        <ele>763</ele>
        <time>2017-05-24T06:03:06.000Z</time>
      </trkpt>
      <trkpt lat="43.7396" lon="6.34351">
        <ele>760.40002441406</ele>
        <time>2017-05-24T06:03:07.000Z</time>
      </trkpt>
      <trkpt lat="43.73963" lon="6.34341">
        <ele>755.20001220703</ele>
        <time>2017-05-24T06:03:11.000Z</time>
      </trkpt>
      <trkpt lat="43.73962" lon="6.34336">
        <ele>754.79998779297</ele>
        <time>2017-05-24T06:04:42.000Z</time>
      </trkpt>
      <trkpt lat="43.7396" lon="6.34333">
        <ele>754.40002441406</ele>
        <time>2017-05-24T06:04:43.000Z</time>
      </trkpt>
      <trkpt lat="43.73951" lon="6.3431">
        <ele>756.40002441406</ele>
        <time>2017-05-24T06:04:50.000Z</time>
      </trkpt>
      <trkpt lat="43.73955" lon="6.34312">
        <ele>754</ele>
        <time>2017-05-24T06:07:15.000Z</time>
      </trkpt>
      <trkpt lat="43.73959" lon="6.34314">
        <ele>751.79998779297</ele>
        <time>2017-05-24T06:07:16.000Z</time>
      </trkpt>
      <trkpt lat="43.73965" lon="6.34317">
        <ele>748</ele>
        <time>2017-05-24T06:07:18.000Z</time>
      </trkpt>
      <trkpt lat="43.73981" lon="6.34325">
        <ele>738.20001220703</ele>
        <time>2017-05-24T06:07:20.000Z</time>
      </trkpt>
      <trkpt lat="43.73986" lon="6.34328">
        <ele>734.79998779297</ele>
        <time>2017-05-24T06:07:21.000Z</time>
      </trkpt>
      <trkpt lat="43.73989" lon="6.3433">
        <ele>732.79998779297</ele>
        <time>2017-05-24T06:07:44.000Z</time>
      </trkpt>
      <trkpt lat="43.73991" lon="6.34332">
        <ele>731.20001220703</ele>
        <time>2017-05-24T06:07:45.000Z</time>
      </trkpt>
      <trkpt lat="43.74016" lon="6.34359">
        <ele>708</ele>
        <time>2017-05-24T06:08:05.000Z</time>
      </trkpt>
      <trkpt lat="43.74017" lon="6.3436">
        <ele>707.79998779297</ele>
        <time>2017-05-24T06:08:07.000Z</time>
      </trkpt>
      <trkpt lat="43.74018" lon="6.34358">
        <ele>706</ele>
        <time>2017-05-24T06:10:37.000Z</time>
      </trkpt>
      <trkpt lat="43.7402" lon="6.34357">
        <ele>704.20001220703</ele>
        <time>2017-05-24T06:10:38.000Z</time>
      </trkpt>
      <trkpt lat="43.74048" lon="6.34358">
        <ele>679.20001220703</ele>
        <time>2017-05-24T06:10:56.000Z</time>
      </trkpt>
      <trkpt lat="43.74055" lon="6.34367">
        <ele>674.59997558594</ele>
        <time>2017-05-24T06:11:42.000Z</time>
      </trkpt>
      <trkpt lat="43.74058" lon="6.3437">
        <ele>672.59997558594</ele>
        <time>2017-05-24T06:11:43.000Z</time>
      </trkpt>
      <trkpt lat="43.74062" lon="6.34374">
        <ele>670</ele>
        <time>2017-05-24T06:11:45.000Z</time>
      </trkpt>
      <trkpt lat="43.74065" lon="6.34383">
        <ele>669.20001220703</ele>
        <time>2017-05-24T06:12:03.000Z</time>
      </trkpt>
      <trkpt lat="43.74066" lon="6.34388">
        <ele>668.59997558594</ele>
        <time>2017-05-24T06:12:04.000Z</time>
      </trkpt>
      <trkpt lat="43.74067" lon="6.34389">
        <ele>668.20001220703</ele>
        <time>2017-05-24T06:12:05.000Z</time>
      </trkpt>
      <trkpt lat="43.74067" lon="6.34391">
        <ele>667.79998779297</ele>
        <time>2017-05-24T06:12:30.000Z</time>
      </trkpt>
      <trkpt lat="43.74067" lon="6.34392">
        <ele>667.79998779297</ele>
        <time>2017-05-24T06:12:31.000Z</time>
      </trkpt>
      <trkpt lat="43.74067" lon="6.34393">
        <ele>667.40002441406</ele>
        <time>2017-05-24T06:12:32.000Z</time>
      </trkpt>
      <trkpt lat="43.74068" lon="6.34396">
        <ele>666.20001220703</ele>
        <time>2017-05-24T06:13:07.000Z</time>
      </trkpt>
      <trkpt lat="43.7407" lon="6.34397">
        <ele>665.20001220703</ele>
        <time>2017-05-24T06:13:08.000Z</time>
      </trkpt>
      <trkpt lat="43.74086" lon="6.34414">
        <ele>650.59997558594</ele>
        <time>2017-05-24T06:13:15.000Z</time>
      </trkpt>
      <trkpt lat="43.74092" lon="6.34409">
        <ele>645.79998779297</ele>
        <time>2017-05-24T06:13:25.000Z</time>
      </trkpt>
      <trkpt lat="43.74094" lon="6.34404">
        <ele>644.59997558594</ele>
        <time>2017-05-24T06:13:47.000Z</time>
      </trkpt>
      <trkpt lat="43.74094" lon="6.34401">
        <ele>644.20001220703</ele>
        <time>2017-05-24T06:13:48.000Z</time>
      </trkpt>
      <trkpt lat="43.74096" lon="6.34357">
        <ele>635</ele>
        <time>2017-05-24T06:14:13.000Z</time>
      </trkpt>
      <trkpt lat="43.74096" lon="6.34352">
        <ele>635.79998779297</ele>
        <time>2017-05-24T06:14:18.000Z</time>
      </trkpt>
      <trkpt lat="43.74096" lon="6.34351">
        <ele>635.40002441406</ele>
        <time>2017-05-24T06:16:25.000Z</time>
      </trkpt>
      <trkpt lat="43.74097" lon="6.3435">
        <ele>635.20001220703</ele>
        <time>2017-05-24T06:16:26.000Z</time>
      </trkpt>
      <trkpt lat="43.741" lon="6.34344">
        <ele>633.40002441406</ele>
        <time>2017-05-24T06:16:30.000Z</time>
      </trkpt>
      <trkpt lat="43.74115" lon="6.34323">
        <ele>625.59997558594</ele>
        <time>2017-05-24T06:16:35.000Z</time>
      </trkpt>
      <trkpt lat="43.74137" lon="6.34312">
        <ele>618</ele>
        <time>2017-05-24T06:16:50.000Z</time>
      </trkpt>
      <trkpt lat="43.7414" lon="6.34314">
        <ele>616.40002441406</ele>
        <time>2017-05-24T06:18:09.000Z</time>
      </trkpt>
      <trkpt lat="43.74142" lon="6.34315">
        <ele>615.20001220703</ele>
        <time>2017-05-24T06:18:10.000Z</time>
      </trkpt>
      <trkpt lat="43.74155" lon="6.3432">
        <ele>608</ele>
        <time>2017-05-24T06:18:23.000Z</time>
      </trkpt>
      <trkpt lat="43.74157" lon="6.34321">
        <ele>607</ele>
        <time>2017-05-24T06:18:49.000Z</time>
      </trkpt>
      <trkpt lat="43.74158" lon="6.34321">
        <ele>606.20001220703</ele>
        <time>2017-05-24T06:18:50.000Z</time>
      </trkpt>
      <trkpt lat="43.74184" lon="6.34327">
        <ele>591.79998779297</ele>
        <time>2017-05-24T06:19:13.000Z</time>
      </trkpt>
      <trkpt lat="43.74187" lon="6.34336">
        <ele>588.59997558594</ele>
        <time>2017-05-24T06:20:18.000Z</time>
      </trkpt>
      <trkpt lat="43.74189" lon="6.34341">
        <ele>586.59997558594</ele>
        <time>2017-05-24T06:20:19.000Z</time>
      </trkpt>
      <trkpt lat="43.7419" lon="6.34344">
        <ele>585.40002441406</ele>
        <time>2017-05-24T06:20:25.000Z</time>
      </trkpt>
      <trkpt lat="43.74191" lon="6.34345">
        <ele>584.59997558594</ele>
        <time>2017-05-24T06:20:39.000Z</time>
      </trkpt>
      <trkpt lat="43.74193" lon="6.34345">
        <ele>583.59997558594</ele>
        <time>2017-05-24T06:20:40.000Z</time>
      </trkpt>
      <trkpt lat="43.74224" lon="6.34342">
        <ele>567.20001220703</ele>
        <time>2017-05-24T06:20:58.000Z</time>
      </trkpt>
      <trkpt lat="43.74225" lon="6.34341">
        <ele>566.79998779297</ele>
        <time>2017-05-24T06:21:39.000Z</time>
      </trkpt>
      <trkpt lat="43.74226" lon="6.34341">
        <ele>566.40002441406</ele>
        <time>2017-05-24T06:21:40.000Z</time>
      </trkpt>
      <trkpt lat="43.7425" lon="6.34337">
        <ele>558.79998779297</ele>
        <time>2017-05-24T06:22:00.000Z</time>
      </trkpt>
      <trkpt lat="43.74252" lon="6.3433">
        <ele>558.40002441406</ele>
        <time>2017-05-24T06:22:38.000Z</time>
      </trkpt>
      <trkpt lat="43.74253" lon="6.34326">
        <ele>559</ele>
        <time>2017-05-24T06:22:39.000Z</time>
      </trkpt>
      <trkpt lat="43.74253" lon="6.34303">
        <ele>559.59997558594</ele>
        <time>2017-05-24T06:22:49.000Z</time>
      </trkpt>
      <trkpt lat="43.74265" lon="6.3429">
        <ele>558</ele>
        <time>2017-05-24T06:23:11.000Z</time>
      </trkpt>
      <trkpt lat="43.74266" lon="6.34288">
        <ele>558</ele>
        <time>2017-05-24T06:23:41.000Z</time>
      </trkpt>
      <trkpt lat="43.74266" lon="6.34287">
        <ele>558.20001220703</ele>
        <time>2017-05-24T06:23:42.000Z</time>
      </trkpt>
      <trkpt lat="43.74273" lon="6.34252">
        <ele>570.40002441406</ele>
        <time>2017-05-24T06:24:05.000Z</time>
      </trkpt>
      <trkpt lat="43.74279" lon="6.34222">
        <ele>597</ele>
        <time>2017-05-24T06:24:33.000Z</time>
      </trkpt>
      <trkpt lat="43.74281" lon="6.34215">
        <ele>601.20001220703</ele>
        <time>2017-05-24T06:24:40.000Z</time>
      </trkpt>
      <trkpt lat="43.74285" lon="6.34206">
        <ele>602.59997558594</ele>
        <time>2017-05-24T06:24:44.000Z</time>
      </trkpt>
      <trkpt lat="43.74287" lon="6.34202">
        <ele>604.20001220703</ele>
        <time>2017-05-24T06:24:45.000Z</time>
      </trkpt>
      <trkpt lat="43.74291" lon="6.34191">
        <ele>607.20001220703</ele>
        <time>2017-05-24T06:24:54.000Z</time>
      </trkpt>
      <trkpt lat="43.74291" lon="6.3419">
        <ele>607.40002441406</ele>
        <time>2017-05-24T06:25:13.000Z</time>
      </trkpt>
      <trkpt lat="43.74291" lon="6.34188">
        <ele>608</ele>
        <time>2017-05-24T06:25:14.000Z</time>
      </trkpt>
      <trkpt lat="43.74293" lon="6.34163">
        <ele>617</ele>
        <time>2017-05-24T06:25:27.000Z</time>
      </trkpt>
      <trkpt lat="43.74294" lon="6.34158">
        <ele>618</ele>
        <time>2017-05-24T06:29:50.000Z</time>
      </trkpt>
      <trkpt lat="43.74296" lon="6.34154">
        <ele>618.79998779297</ele>
        <time>2017-05-24T06:29:51.000Z</time>
      </trkpt>
      <trkpt lat="43.74298" lon="6.34148">
        <ele>620.20001220703</ele>
        <time>2017-05-24T06:29:58.000Z</time>
      </trkpt>
      <trkpt lat="43.74298" lon="6.34147">
        <ele>620.59997558594</ele>
        <time>2017-05-24T06:30:23.000Z</time>
      </trkpt>
      <trkpt lat="43.74298" lon="6.34146">
        <ele>620.79998779297</ele>
        <time>2017-05-24T06:30:24.000Z</time>
      </trkpt>
      <trkpt lat="43.74299" lon="6.34143">
        <ele>621.40002441406</ele>
        <time>2017-05-24T06:30:26.000Z</time>
      </trkpt>
      <trkpt lat="43.74301" lon="6.34135">
        <ele>623.20001220703</ele>
        <time>2017-05-24T06:30:28.000Z</time>
      </trkpt>
      <trkpt lat="43.74303" lon="6.34125">
        <ele>628</ele>
        <time>2017-05-24T06:30:31.000Z</time>
      </trkpt>
      <trkpt lat="43.74304" lon="6.34122">
        <ele>629.40002441406</ele>
        <time>2017-05-24T06:31:03.000Z</time>
      </trkpt>
      <trkpt lat="43.74305" lon="6.3412">
        <ele>630.59997558594</ele>
        <time>2017-05-24T06:31:04.000Z</time>
      </trkpt>
      <trkpt lat="43.74306" lon="6.34116">
        <ele>632.40002441406</ele>
        <time>2017-05-24T06:31:07.000Z</time>
      </trkpt>
      <trkpt lat="43.74308" lon="6.34109">
        <ele>636.20001220703</ele>
        <time>2017-05-24T06:31:09.000Z</time>
      </trkpt>
      <trkpt lat="43.7431" lon="6.34102">
        <ele>639.79998779297</ele>
        <time>2017-05-24T06:31:14.000Z</time>
      </trkpt>
      <trkpt lat="43.74311" lon="6.34097">
        <ele>642.40002441406</ele>
        <time>2017-05-24T06:31:15.000Z</time>
      </trkpt>
      <trkpt lat="43.74314" lon="6.34091">
        <ele>645.79998779297</ele>
        <time>2017-05-24T06:31:17.000Z</time>
      </trkpt>
      <trkpt lat="43.74318" lon="6.34079">
        <ele>654</ele>
        <time>2017-05-24T06:31:20.000Z</time>
      </trkpt>
      <trkpt lat="43.74323" lon="6.34064">
        <ele>656.40002441406</ele>
        <time>2017-05-24T06:31:30.000Z</time>
      </trkpt>
      <trkpt lat="43.74327" lon="6.34048">
        <ele>657</ele>
        <time>2017-05-24T06:31:46.000Z</time>
      </trkpt>
      <trkpt lat="43.74325" lon="6.34035">
        <ele>656.59997558594</ele>
        <time>2017-05-24T06:31:59.000Z</time>
      </trkpt>
      <trkpt lat="43.74315" lon="6.3402">
        <ele>655.59997558594</ele>
        <time>2017-05-24T06:32:05.000Z</time>
      </trkpt>
      <trkpt lat="43.74312" lon="6.34016">
        <ele>656</ele>
        <time>2017-05-24T06:32:40.000Z</time>
      </trkpt>
      <trkpt lat="43.7431" lon="6.34013">
        <ele>657.20001220703</ele>
        <time>2017-05-24T06:32:41.000Z</time>
      </trkpt>
      <trkpt lat="43.74307" lon="6.3401">
        <ele>658.40002441406</ele>
        <time>2017-05-24T06:32:43.000Z</time>
      </trkpt>
      <trkpt lat="43.74303" lon="6.34005">
        <ele>660.20001220703</ele>
        <time>2017-05-24T06:32:45.000Z</time>
      </trkpt>
      <trkpt lat="43.74299" lon="6.34001">
        <ele>662.20001220703</ele>
        <time>2017-05-24T06:32:47.000Z</time>
      </trkpt>
      <trkpt lat="43.74294" lon="6.33995">
        <ele>664.79998779297</ele>
        <time>2017-05-24T06:32:49.000Z</time>
      </trkpt>
      <trkpt lat="43.74288" lon="6.33989">
        <ele>667.79998779297</ele>
        <time>2017-05-24T06:32:51.000Z</time>
      </trkpt>
      <trkpt lat="43.74281" lon="6.3397">
        <ele>673.20001220703</ele>
        <time>2017-05-24T06:33:04.000Z</time>
      </trkpt>
      <trkpt lat="43.74286" lon="6.33959">
        <ele>671.20001220703</ele>
        <time>2017-05-24T06:33:11.000Z</time>
      </trkpt>
      <trkpt lat="43.74287" lon="6.33955">
        <ele>671</ele>
        <time>2017-05-24T06:33:20.000Z</time>
      </trkpt>
      <trkpt lat="43.74289" lon="6.33952">
        <ele>670.79998779297</ele>
        <time>2017-05-24T06:33:26.000Z</time>
      </trkpt>
      <trkpt lat="43.74289" lon="6.3395">
        <ele>670.79998779297</ele>
        <time>2017-05-24T06:33:27.000Z</time>
      </trkpt>
      <trkpt lat="43.7429" lon="6.33949">
        <ele>670.79998779297</ele>
        <time>2017-05-24T06:33:29.000Z</time>
      </trkpt>
      <trkpt lat="43.7429" lon="6.33945">
        <ele>671.20001220703</ele>
        <time>2017-05-24T06:33:51.000Z</time>
      </trkpt>
      <trkpt lat="43.74291" lon="6.33943">
        <ele>671</ele>
        <time>2017-05-24T06:33:52.000Z</time>
      </trkpt>
      <trkpt lat="43.74301" lon="6.33926">
        <ele>664.59997558594</ele>
        <time>2017-05-24T06:34:12.000Z</time>
      </trkpt>
      <trkpt lat="43.74303" lon="6.33922">
        <ele>664.59997558594</ele>
        <time>2017-05-24T06:34:26.000Z</time>
      </trkpt>
      <trkpt lat="43.74303" lon="6.3392">
        <ele>664.79998779297</ele>
        <time>2017-05-24T06:34:27.000Z</time>
      </trkpt>
      <trkpt lat="43.74309" lon="6.33891">
        <ele>669.20001220703</ele>
        <time>2017-05-24T06:34:53.000Z</time>
      </trkpt>
      <trkpt lat="43.74305" lon="6.33865">
        <ele>678</ele>
        <time>2017-05-24T06:35:11.000Z</time>
      </trkpt>
      <trkpt lat="43.74305" lon="6.33865">
        <ele>678.20001220703</ele>
        <time>2017-05-24T06:36:22.000Z</time>
      </trkpt>
      <trkpt lat="43.74305" lon="6.33865">
        <ele>678.20001220703</ele>
        <time>2017-05-24T06:36:23.000Z</time>
      </trkpt>
      <trkpt lat="43.74305" lon="6.33864">
        <ele>678.40002441406</ele>
        <time>2017-05-24T06:36:25.000Z</time>
      </trkpt>
      <trkpt lat="43.74302" lon="6.33858">
        <ele>681.40002441406</ele>
        <time>2017-05-24T06:36:27.000Z</time>
      </trkpt>
      <trkpt lat="43.74299" lon="6.33852">
        <ele>683</ele>
        <time>2017-05-24T06:36:29.000Z</time>
      </trkpt>
      <trkpt lat="43.74298" lon="6.33848">
        <ele>683.79998779297</ele>
        <time>2017-05-24T06:36:31.000Z</time>
      </trkpt>
      <trkpt lat="43.74296" lon="6.33844">
        <ele>684.79998779297</ele>
        <time>2017-05-24T06:36:33.000Z</time>
      </trkpt>
      <trkpt lat="43.74294" lon="6.33839">
        <ele>686</ele>
        <time>2017-05-24T06:36:35.000Z</time>
      </trkpt>
      <trkpt lat="43.74292" lon="6.33836">
        <ele>686.59997558594</ele>
        <time>2017-05-24T06:37:01.000Z</time>
      </trkpt>
      <trkpt lat="43.74292" lon="6.33834">
        <ele>686.79998779297</ele>
        <time>2017-05-24T06:37:02.000Z</time>
      </trkpt>
      <trkpt lat="43.74284" lon="6.33809">
        <ele>703.79998779297</ele>
        <time>2017-05-24T06:37:17.000Z</time>
      </trkpt>
      <trkpt lat="43.74274" lon="6.33779">
        <ele>759.79998779297</ele>
        <time>2017-05-24T06:37:28.000Z</time>
      </trkpt>
      <trkpt lat="43.74269" lon="6.33758">
        <ele>777.59997558594</ele>
        <time>2017-05-24T06:37:43.000Z</time>
      </trkpt>
      <trkpt lat="43.74268" lon="6.33751">
        <ele>786.79998779297</ele>
        <time>2017-05-24T06:38:01.000Z</time>
      </trkpt>
      <trkpt lat="43.74268" lon="6.33747">
        <ele>792.40002441406</ele>
        <time>2017-05-24T06:38:02.000Z</time>
      </trkpt>
      <trkpt lat="43.74266" lon="6.33719">
        <ele>800.40002441406</ele>
        <time>2017-05-24T06:38:34.000Z</time>
      </trkpt>
      <trkpt lat="43.74266" lon="6.33717">
        <ele>801.20001220703</ele>
        <time>2017-05-24T06:39:41.000Z</time>
      </trkpt>
      <trkpt lat="43.74265" lon="6.33716">
        <ele>801.40002441406</ele>
        <time>2017-05-24T06:39:42.000Z</time>
      </trkpt>
      <trkpt lat="43.74259" lon="6.33707">
        <ele>803.20001220703</ele>
        <time>2017-05-24T06:39:51.000Z</time>
      </trkpt>
      <trkpt lat="43.74261" lon="6.33706">
        <ele>802.59997558594</ele>
        <time>2017-05-24T06:40:27.000Z</time>
      </trkpt>
      <trkpt lat="43.74263" lon="6.33705">
        <ele>802</ele>
        <time>2017-05-24T06:40:28.000Z</time>
      </trkpt>
      <trkpt lat="43.74264" lon="6.33704">
        <ele>801.59997558594</ele>
        <time>2017-05-24T06:40:29.000Z</time>
      </trkpt>
      <trkpt lat="43.74265" lon="6.33704">
        <ele>801.40002441406</ele>
        <time>2017-05-24T06:40:49.000Z</time>
      </trkpt>
      <trkpt lat="43.74266" lon="6.33704">
        <ele>801</ele>
        <time>2017-05-24T06:40:50.000Z</time>
      </trkpt>
      <trkpt lat="43.74266" lon="6.33704">
        <ele>801</ele>
        <time>2017-05-24T06:40:51.000Z</time>
      </trkpt>
      <trkpt lat="43.74268" lon="6.33703">
        <ele>800.40002441406</ele>
        <time>2017-05-24T06:40:54.000Z</time>
      </trkpt>
      <trkpt lat="43.74269" lon="6.33703">
        <ele>800</ele>
        <time>2017-05-24T06:40:55.000Z</time>
      </trkpt>
      <trkpt lat="43.74278" lon="6.337">
        <ele>797.59997558594</ele>
        <time>2017-05-24T06:41:11.000Z</time>
      </trkpt>
      <trkpt lat="43.74279" lon="6.33699">
        <ele>797.40002441406</ele>
        <time>2017-05-24T06:41:25.000Z</time>
      </trkpt>
      <trkpt lat="43.74279" lon="6.33699">
        <ele>797.20001220703</ele>
        <time>2017-05-24T06:41:26.000Z</time>
      </trkpt>
      <trkpt lat="43.74279" lon="6.33699">
        <ele>797.20001220703</ele>
        <time>2017-05-24T06:41:27.000Z</time>
      </trkpt>
      <trkpt lat="43.74281" lon="6.33699">
        <ele>796.79998779297</ele>
        <time>2017-05-24T06:41:32.000Z</time>
      </trkpt>
      <trkpt lat="43.74282" lon="6.33699">
        <ele>796.20001220703</ele>
        <time>2017-05-24T06:41:33.000Z</time>
      </trkpt>
      <trkpt lat="43.74284" lon="6.33698">
        <ele>795.79998779297</ele>
        <time>2017-05-24T06:41:35.000Z</time>
      </trkpt>
      <trkpt lat="43.74286" lon="6.33698">
        <ele>795.20001220703</ele>
        <time>2017-05-24T06:41:38.000Z</time>
      </trkpt>
      <trkpt lat="43.74287" lon="6.33698">
        <ele>794.40002441406</ele>
        <time>2017-05-24T06:41:41.000Z</time>
      </trkpt>
      <trkpt lat="43.74289" lon="6.33697">
        <ele>793.79998779297</ele>
        <time>2017-05-24T06:41:43.000Z</time>
      </trkpt>
      <trkpt lat="43.74292" lon="6.33697">
        <ele>792.79998779297</ele>
        <time>2017-05-24T06:41:46.000Z</time>
      </trkpt>
      <trkpt lat="43.74295" lon="6.33696">
        <ele>792.79998779297</ele>
        <time>2017-05-24T06:41:48.000Z</time>
      </trkpt>
      <trkpt lat="43.74298" lon="6.33695">
        <ele>792.79998779297</ele>
        <time>2017-05-24T06:41:50.000Z</time>
      </trkpt>
      <trkpt lat="43.74302" lon="6.33695">
        <ele>792.59997558594</ele>
        <time>2017-05-24T06:41:54.000Z</time>
      </trkpt>
      <trkpt lat="43.74325" lon="6.33694">
        <ele>777.59997558594</ele>
        <time>2017-05-24T06:42:02.000Z</time>
      </trkpt>
      <trkpt lat="43.74337" lon="6.33693">
        <ele>760.79998779297</ele>
        <time>2017-05-24T06:42:03.000Z</time>
      </trkpt>
      <trkpt lat="43.74339" lon="6.33693">
        <ele>757</ele>
        <time>2017-05-24T06:42:15.000Z</time>
      </trkpt>
      <trkpt lat="43.74342" lon="6.33693">
        <ele>753.40002441406</ele>
        <time>2017-05-24T06:42:16.000Z</time>
      </trkpt>
      <trkpt lat="43.74343" lon="6.33693">
        <ele>750.40002441406</ele>
        <time>2017-05-24T06:42:20.000Z</time>
      </trkpt>
      <trkpt lat="43.74349" lon="6.33693">
        <ele>746</ele>
        <time>2017-05-24T06:42:22.000Z</time>
      </trkpt>
      <trkpt lat="43.74353" lon="6.33692">
        <ele>742.79998779297</ele>
        <time>2017-05-24T06:42:24.000Z</time>
      </trkpt>
      <trkpt lat="43.74356" lon="6.33691">
        <ele>740.59997558594</ele>
        <time>2017-05-24T06:42:25.000Z</time>
      </trkpt>
      <trkpt lat="43.74359" lon="6.33691">
        <ele>738.59997558594</ele>
        <time>2017-05-24T06:42:27.000Z</time>
      </trkpt>
      <trkpt lat="43.7436" lon="6.3369">
        <ele>737.79998779297</ele>
        <time>2017-05-24T06:42:58.000Z</time>
      </trkpt>
      <trkpt lat="43.74361" lon="6.3369">
        <ele>737.40002441406</ele>
        <time>2017-05-24T06:42:59.000Z</time>
      </trkpt>
      <trkpt lat="43.7437" lon="6.33682">
        <ele>733.40002441406</ele>
        <time>2017-05-24T06:43:08.000Z</time>
      </trkpt>
      <trkpt lat="43.74373" lon="6.33681">
        <ele>731</ele>
        <time>2017-05-24T06:43:17.000Z</time>
      </trkpt>
      <trkpt lat="43.74376" lon="6.3368">
        <ele>728.79998779297</ele>
        <time>2017-05-24T06:43:18.000Z</time>
      </trkpt>
      <trkpt lat="43.74382" lon="6.33677">
        <ele>723.79998779297</ele>
        <time>2017-05-24T06:43:22.000Z</time>
      </trkpt>
      <trkpt lat="43.74384" lon="6.33677">
        <ele>722.59997558594</ele>
        <time>2017-05-24T06:43:24.000Z</time>
      </trkpt>
      <trkpt lat="43.74385" lon="6.33676">
        <ele>722.20001220703</ele>
        <time>2017-05-24T06:43:27.000Z</time>
      </trkpt>
      <trkpt lat="43.74385" lon="6.33676">
        <ele>721.59997558594</ele>
        <time>2017-05-24T06:43:28.000Z</time>
      </trkpt>
      <trkpt lat="43.74398" lon="6.33668">
        <ele>716</ele>
        <time>2017-05-24T06:43:47.000Z</time>
      </trkpt>
      <trkpt lat="43.74405" lon="6.33669">
        <ele>715.79998779297</ele>
        <time>2017-05-24T06:43:56.000Z</time>
      </trkpt>
      <trkpt lat="43.74415" lon="6.33669">
        <ele>713.79998779297</ele>
        <time>2017-05-24T06:43:58.000Z</time>
      </trkpt>
      <trkpt lat="43.74422" lon="6.33669">
        <ele>712.59997558594</ele>
        <time>2017-05-24T06:44:00.000Z</time>
      </trkpt>
      <trkpt lat="43.74428" lon="6.33668">
        <ele>714.20001220703</ele>
        <time>2017-05-24T06:44:02.000Z</time>
      </trkpt>
      <trkpt lat="43.74433" lon="6.33667">
        <ele>714.40002441406</ele>
        <time>2017-05-24T06:44:04.000Z</time>
      </trkpt>
      <trkpt lat="43.74437" lon="6.33667">
        <ele>714.20001220703</ele>
        <time>2017-05-24T06:44:06.000Z</time>
      </trkpt>
      <trkpt lat="43.74441" lon="6.33666">
        <ele>714</ele>
        <time>2017-05-24T06:44:08.000Z</time>
      </trkpt>
      <trkpt lat="43.74445" lon="6.33666">
        <ele>713.79998779297</ele>
        <time>2017-05-24T06:44:10.000Z</time>
      </trkpt>
      <trkpt lat="43.74449" lon="6.33665">
        <ele>713.59997558594</ele>
        <time>2017-05-24T06:44:13.000Z</time>
      </trkpt>
      <trkpt lat="43.74453" lon="6.33665">
        <ele>716.20001220703</ele>
        <time>2017-05-24T06:44:15.000Z</time>
      </trkpt>
      <trkpt lat="43.74458" lon="6.33664">
        <ele>719.20001220703</ele>
        <time>2017-05-24T06:44:17.000Z</time>
      </trkpt>
      <trkpt lat="43.74467" lon="6.33663">
        <ele>726</ele>
        <time>2017-05-24T06:44:19.000Z</time>
      </trkpt>
      <trkpt lat="43.74479" lon="6.33661">
        <ele>734.40002441406</ele>
        <time>2017-05-24T06:44:22.000Z</time>
      </trkpt>
      <trkpt lat="43.74496" lon="6.33656">
        <ele>752</ele>
        <time>2017-05-24T06:44:32.000Z</time>
      </trkpt>
      <trkpt lat="43.74504" lon="6.33645">
        <ele>746.40002441406</ele>
        <time>2017-05-24T06:44:45.000Z</time>
      </trkpt>
      <trkpt lat="43.74508" lon="6.33638">
        <ele>740.79998779297</ele>
        <time>2017-05-24T06:44:56.000Z</time>
      </trkpt>
      <trkpt lat="43.74511" lon="6.33636">
        <ele>742.40002441406</ele>
        <time>2017-05-24T06:45:13.000Z</time>
      </trkpt>
      <trkpt lat="43.74514" lon="6.33634">
        <ele>744.20001220703</ele>
        <time>2017-05-24T06:45:14.000Z</time>
      </trkpt>
      <trkpt lat="43.74516" lon="6.33633">
        <ele>745.40002441406</ele>
        <time>2017-05-24T06:45:19.000Z</time>
      </trkpt>
      <trkpt lat="43.74517" lon="6.33629">
        <ele>744.79998779297</ele>
        <time>2017-05-24T06:45:47.000Z</time>
      </trkpt>
      <trkpt lat="43.74519" lon="6.33625">
        <ele>745</ele>
        <time>2017-05-24T06:45:48.000Z</time>
      </trkpt>
      <trkpt lat="43.74521" lon="6.33615">
        <ele>741.79998779297</ele>
        <time>2017-05-24T06:45:56.000Z</time>
      </trkpt>
      <trkpt lat="43.7452" lon="6.33613">
        <ele>740.59997558594</ele>
        <time>2017-05-24T06:46:41.000Z</time>
      </trkpt>
      <trkpt lat="43.7452" lon="6.33612">
        <ele>739.59997558594</ele>
        <time>2017-05-24T06:46:42.000Z</time>
      </trkpt>
      <trkpt lat="43.74519" lon="6.33594">
        <ele>729</ele>
        <time>2017-05-24T06:46:53.000Z</time>
      </trkpt>
      <trkpt lat="43.7452" lon="6.33593">
        <ele>729</ele>
        <time>2017-05-24T06:47:18.000Z</time>
      </trkpt>
      <trkpt lat="43.7452" lon="6.33592">
        <ele>729</ele>
        <time>2017-05-24T06:47:19.000Z</time>
      </trkpt>
      <trkpt lat="43.74521" lon="6.3359">
        <ele>728.59997558594</ele>
        <time>2017-05-24T06:47:24.000Z</time>
      </trkpt>
      <trkpt lat="43.74521" lon="6.33589">
        <ele>728.20001220703</ele>
        <time>2017-05-24T06:47:26.000Z</time>
      </trkpt>
      <trkpt lat="43.74524" lon="6.33583">
        <ele>726.40002441406</ele>
        <time>2017-05-24T06:47:28.000Z</time>
      </trkpt>
      <trkpt lat="43.74526" lon="6.33578">
        <ele>725.40002441406</ele>
        <time>2017-05-24T06:47:30.000Z</time>
      </trkpt>
      <trkpt lat="43.74527" lon="6.33575">
        <ele>726.40002441406</ele>
        <time>2017-05-24T06:47:34.000Z</time>
      </trkpt>
      <trkpt lat="43.74528" lon="6.33574">
        <ele>726.59997558594</ele>
        <time>2017-05-24T06:47:35.000Z</time>
      </trkpt>
      <trkpt lat="43.74527" lon="6.33571">
        <ele>726</ele>
        <time>2017-05-24T06:47:40.000Z</time>
      </trkpt>
      <trkpt lat="43.74527" lon="6.33568">
        <ele>725.40002441406</ele>
        <time>2017-05-24T06:47:41.000Z</time>
      </trkpt>
      <trkpt lat="43.74525" lon="6.33558">
        <ele>721.79998779297</ele>
        <time>2017-05-24T06:47:43.000Z</time>
      </trkpt>
      <trkpt lat="43.74521" lon="6.33547">
        <ele>715.20001220703</ele>
        <time>2017-05-24T06:47:45.000Z</time>
      </trkpt>
      <trkpt lat="43.74518" lon="6.3354">
        <ele>709.40002441406</ele>
        <time>2017-05-24T06:47:47.000Z</time>
      </trkpt>
      <trkpt lat="43.74514" lon="6.33532">
        <ele>702.59997558594</ele>
        <time>2017-05-24T06:47:50.000Z</time>
      </trkpt>
      <trkpt lat="43.7452" lon="6.33526">
        <ele>705.20001220703</ele>
        <time>2017-05-24T06:48:12.000Z</time>
      </trkpt>
      <trkpt lat="43.74525" lon="6.33522">
        <ele>706.79998779297</ele>
        <time>2017-05-24T06:48:13.000Z</time>
      </trkpt>
      <trkpt lat="43.7453" lon="6.33516">
        <ele>705.59997558594</ele>
        <time>2017-05-24T06:48:19.000Z</time>
      </trkpt>
      <trkpt lat="43.74535" lon="6.3351">
        <ele>701.20001220703</ele>
        <time>2017-05-24T06:48:21.000Z</time>
      </trkpt>
      <trkpt lat="43.74538" lon="6.33506">
        <ele>698.20001220703</ele>
        <time>2017-05-24T06:48:23.000Z</time>
      </trkpt>
      <trkpt lat="43.74541" lon="6.33502">
        <ele>696.20001220703</ele>
        <time>2017-05-24T06:48:25.000Z</time>
      </trkpt>
      <trkpt lat="43.74544" lon="6.335">
        <ele>702.59997558594</ele>
        <time>2017-05-24T06:48:27.000Z</time>
      </trkpt>
      <trkpt lat="43.74546" lon="6.33498">
        <ele>707.79998779297</ele>
        <time>2017-05-24T06:48:29.000Z</time>
      </trkpt>
      <trkpt lat="43.74548" lon="6.33495">
        <ele>714.40002441406</ele>
        <time>2017-05-24T06:48:31.000Z</time>
      </trkpt>
      <trkpt lat="43.74532" lon="6.3348">
        <ele>691</ele>
        <time>2017-05-24T06:48:40.000Z</time>
      </trkpt>
      <trkpt lat="43.74516" lon="6.33464">
        <ele>685</ele>
        <time>2017-05-24T06:48:48.000Z</time>
      </trkpt>
      <trkpt lat="43.74508" lon="6.33453">
        <ele>675.59997558594</ele>
        <time>2017-05-24T06:48:50.000Z</time>
      </trkpt>
      <trkpt lat="43.74497" lon="6.33432">
        <ele>677.40002441406</ele>
        <time>2017-05-24T06:48:55.000Z</time>
      </trkpt>
      <trkpt lat="43.74495" lon="6.33412">
        <ele>680.79998779297</ele>
        <time>2017-05-24T06:49:03.000Z</time>
      </trkpt>
      <trkpt lat="43.74503" lon="6.33371">
        <ele>694.59997558594</ele>
        <time>2017-05-24T06:49:30.000Z</time>
      </trkpt>
      <trkpt lat="43.74522" lon="6.33344">
        <ele>691</ele>
        <time>2017-05-24T06:49:48.000Z</time>
      </trkpt>
      <trkpt lat="43.7454" lon="6.33311">
        <ele>681.20001220703</ele>
        <time>2017-05-24T06:50:14.000Z</time>
      </trkpt>
      <trkpt lat="43.74562" lon="6.33296">
        <ele>674</ele>
        <time>2017-05-24T06:50:31.000Z</time>
      </trkpt>
      <trkpt lat="43.74576" lon="6.33275">
        <ele>674.40002441406</ele>
        <time>2017-05-24T06:50:57.000Z</time>
      </trkpt>
      <trkpt lat="43.74583" lon="6.33262">
        <ele>675.40002441406</ele>
        <time>2017-05-24T06:51:08.000Z</time>
      </trkpt>
      <trkpt lat="43.74586" lon="6.33254">
        <ele>675.40002441406</ele>
        <time>2017-05-24T06:51:24.000Z</time>
      </trkpt>
      <trkpt lat="43.74587" lon="6.33246">
        <ele>675</ele>
        <time>2017-05-24T06:51:30.000Z</time>
      </trkpt>
      <trkpt lat="43.74588" lon="6.33241">
        <ele>675.79998779297</ele>
        <time>2017-05-24T06:51:31.000Z</time>
      </trkpt>
      <trkpt lat="43.74598" lon="6.33213">
        <ele>677.59997558594</ele>
        <time>2017-05-24T06:51:45.000Z</time>
      </trkpt>
      <trkpt lat="43.74602" lon="6.332">
        <ele>676</ele>
        <time>2017-05-24T06:52:04.000Z</time>
      </trkpt>
      <trkpt lat="43.74604" lon="6.33193">
        <ele>675.79998779297</ele>
        <time>2017-05-24T06:52:10.000Z</time>
      </trkpt>
      <trkpt lat="43.74606" lon="6.33164">
        <ele>669</ele>
        <time>2017-05-24T06:52:15.000Z</time>
      </trkpt>
      <trkpt lat="43.74611" lon="6.33153">
        <ele>667</ele>
        <time>2017-05-24T06:52:26.000Z</time>
      </trkpt>
      <trkpt lat="43.74616" lon="6.33125">
        <ele>666</ele>
        <time>2017-05-24T06:52:37.000Z</time>
      </trkpt>
      <trkpt lat="43.74608" lon="6.33111">
        <ele>670.20001220703</ele>
        <time>2017-05-24T06:52:48.000Z</time>
      </trkpt>
      <trkpt lat="43.74597" lon="6.33091">
        <ele>672.79998779297</ele>
        <time>2017-05-24T06:53:09.000Z</time>
      </trkpt>
      <trkpt lat="43.74594" lon="6.33066">
        <ele>674.79998779297</ele>
        <time>2017-05-24T06:53:21.000Z</time>
      </trkpt>
      <trkpt lat="43.74593" lon="6.33065">
        <ele>675</ele>
        <time>2017-05-24T06:54:15.000Z</time>
      </trkpt>
      <trkpt lat="43.74593" lon="6.33063">
        <ele>675.20001220703</ele>
        <time>2017-05-24T06:54:16.000Z</time>
      </trkpt>
      <trkpt lat="43.74592" lon="6.33062">
        <ele>675.59997558594</ele>
        <time>2017-05-24T06:54:20.000Z</time>
      </trkpt>
      <trkpt lat="43.74591" lon="6.33056">
        <ele>676.40002441406</ele>
        <time>2017-05-24T06:54:26.000Z</time>
      </trkpt>
      <trkpt lat="43.7459" lon="6.33052">
        <ele>677</ele>
        <time>2017-05-24T06:54:27.000Z</time>
      </trkpt>
      <trkpt lat="43.74593" lon="6.3302">
        <ele>675.59997558594</ele>
        <time>2017-05-24T06:54:46.000Z</time>
      </trkpt>
      <trkpt lat="43.74593" lon="6.3302">
        <ele>675.59997558594</ele>
        <time>2017-05-24T06:54:59.000Z</time>
      </trkpt>
      <trkpt lat="43.74593" lon="6.33019">
        <ele>675.59997558594</ele>
        <time>2017-05-24T06:55:00.000Z</time>
      </trkpt>
      <trkpt lat="43.74598" lon="6.33006">
        <ele>675.59997558594</ele>
        <time>2017-05-24T06:55:24.000Z</time>
      </trkpt>
      <trkpt lat="43.74601" lon="6.32998">
        <ele>673.79998779297</ele>
        <time>2017-05-24T06:55:31.000Z</time>
      </trkpt>
      <trkpt lat="43.74604" lon="6.32995">
        <ele>673.79998779297</ele>
        <time>2017-05-24T06:55:46.000Z</time>
      </trkpt>
      <trkpt lat="43.74606" lon="6.32992">
        <ele>678</ele>
        <time>2017-05-24T06:55:47.000Z</time>
      </trkpt>
      <trkpt lat="43.74607" lon="6.3299">
        <ele>681.40002441406</ele>
        <time>2017-05-24T06:55:52.000Z</time>
      </trkpt>
      <trkpt lat="43.7461" lon="6.32987">
        <ele>684.59997558594</ele>
        <time>2017-05-24T06:56:11.000Z</time>
      </trkpt>
      <trkpt lat="43.74612" lon="6.32986">
        <ele>680.79998779297</ele>
        <time>2017-05-24T06:56:12.000Z</time>
      </trkpt>
      <trkpt lat="43.74617" lon="6.32981">
        <ele>669</ele>
        <time>2017-05-24T06:56:19.000Z</time>
      </trkpt>
      <trkpt lat="43.74623" lon="6.32974">
        <ele>664.59997558594</ele>
        <time>2017-05-24T06:57:12.000Z</time>
      </trkpt>
      <trkpt lat="43.74627" lon="6.3297">
        <ele>662.40002441406</ele>
        <time>2017-05-24T06:57:13.000Z</time>
      </trkpt>
      <trkpt lat="43.74632" lon="6.32948">
        <ele>659.79998779297</ele>
        <time>2017-05-24T06:57:27.000Z</time>
      </trkpt>
      <trkpt lat="43.74632" lon="6.32947">
        <ele>660.40002441406</ele>
        <time>2017-05-24T06:57:35.000Z</time>
      </trkpt>
      <trkpt lat="43.74632" lon="6.32946">
        <ele>660.79998779297</ele>
        <time>2017-05-24T06:57:36.000Z</time>
      </trkpt>
      <trkpt lat="43.74633" lon="6.32946">
        <ele>661.40002441406</ele>
        <time>2017-05-24T06:57:37.000Z</time>
      </trkpt>
      <trkpt lat="43.74633" lon="6.32945">
        <ele>662.20001220703</ele>
        <time>2017-05-24T06:58:02.000Z</time>
      </trkpt>
      <trkpt lat="43.74633" lon="6.32944">
        <ele>663</ele>
        <time>2017-05-24T06:58:03.000Z</time>
      </trkpt>
      <trkpt lat="43.74639" lon="6.32932">
        <ele>668</ele>
        <time>2017-05-24T06:58:13.000Z</time>
      </trkpt>
      <trkpt lat="43.74641" lon="6.3293">
        <ele>668</ele>
        <time>2017-05-24T06:58:15.000Z</time>
      </trkpt>
      <trkpt lat="43.74652" lon="6.32917">
        <ele>670.79998779297</ele>
        <time>2017-05-24T06:58:22.000Z</time>
      </trkpt>
      <trkpt lat="43.74656" lon="6.32909">
        <ele>675.59997558594</ele>
        <time>2017-05-24T06:58:35.000Z</time>
      </trkpt>
      <trkpt lat="43.74661" lon="6.32893">
        <ele>677.40002441406</ele>
        <time>2017-05-24T06:58:41.000Z</time>
      </trkpt>
      <trkpt lat="43.74662" lon="6.32863">
        <ele>668.79998779297</ele>
        <time>2017-05-24T06:58:53.000Z</time>
      </trkpt>
      <trkpt lat="43.74662" lon="6.32863">
        <ele>668.79998779297</ele>
        <time>2017-05-24T07:00:11.000Z</time>
      </trkpt>
      <trkpt lat="43.74663" lon="6.32863">
        <ele>669</ele>
        <time>2017-05-24T07:00:12.000Z</time>
      </trkpt>
      <trkpt lat="43.74664" lon="6.32863">
        <ele>669.40002441406</ele>
        <time>2017-05-24T07:00:14.000Z</time>
      </trkpt>
      <trkpt lat="43.7467" lon="6.32862">
        <ele>671.20001220703</ele>
        <time>2017-05-24T07:00:16.000Z</time>
      </trkpt>
      <trkpt lat="43.74674" lon="6.32861">
        <ele>672.40002441406</ele>
        <time>2017-05-24T07:00:18.000Z</time>
      </trkpt>
      <trkpt lat="43.74678" lon="6.3286">
        <ele>673.59997558594</ele>
        <time>2017-05-24T07:00:20.000Z</time>
      </trkpt>
      <trkpt lat="43.74683" lon="6.32859">
        <ele>674.79998779297</ele>
        <time>2017-05-24T07:00:23.000Z</time>
      </trkpt>
      <trkpt lat="43.74687" lon="6.32857">
        <ele>675.59997558594</ele>
        <time>2017-05-24T07:00:26.000Z</time>
      </trkpt>
      <trkpt lat="43.74687" lon="6.32857">
        <ele>675.59997558594</ele>
        <time>2017-05-24T07:00:28.000Z</time>
      </trkpt>
      <trkpt lat="43.74689" lon="6.32856">
        <ele>676</ele>
        <time>2017-05-24T07:00:30.000Z</time>
      </trkpt>
      <trkpt lat="43.74692" lon="6.32855">
        <ele>676.40002441406</ele>
        <time>2017-05-24T07:00:32.000Z</time>
      </trkpt>
      <trkpt lat="43.74695" lon="6.32854">
        <ele>677.20001220703</ele>
        <time>2017-05-24T07:00:34.000Z</time>
      </trkpt>
      <trkpt lat="43.74698" lon="6.32852">
        <ele>677.79998779297</ele>
        <time>2017-05-24T07:00:36.000Z</time>
      </trkpt>
      <trkpt lat="43.74701" lon="6.32851">
        <ele>679.40002441406</ele>
        <time>2017-05-24T07:00:38.000Z</time>
      </trkpt>
      <trkpt lat="43.74705" lon="6.32849">
        <ele>684</ele>
        <time>2017-05-24T07:00:40.000Z</time>
      </trkpt>
      <trkpt lat="43.74707" lon="6.32848">
        <ele>687</ele>
        <time>2017-05-24T07:00:42.000Z</time>
      </trkpt>
      <trkpt lat="43.74711" lon="6.32846">
        <ele>692</ele>
        <time>2017-05-24T07:00:44.000Z</time>
      </trkpt>
      <trkpt lat="43.74714" lon="6.32843">
        <ele>695.79998779297</ele>
        <time>2017-05-24T07:00:46.000Z</time>
      </trkpt>
      <trkpt lat="43.74718" lon="6.32839">
        <ele>693.59997558594</ele>
        <time>2017-05-24T07:00:48.000Z</time>
      </trkpt>
      <trkpt lat="43.74723" lon="6.32834">
        <ele>687.40002441406</ele>
        <time>2017-05-24T07:00:50.000Z</time>
      </trkpt>
      <trkpt lat="43.74729" lon="6.32828">
        <ele>680.79998779297</ele>
        <time>2017-05-24T07:00:52.000Z</time>
      </trkpt>
      <trkpt lat="43.74733" lon="6.32823">
        <ele>686</ele>
        <time>2017-05-24T07:00:54.000Z</time>
      </trkpt>
      <trkpt lat="43.74736" lon="6.3282">
        <ele>689.59997558594</ele>
        <time>2017-05-24T07:00:56.000Z</time>
      </trkpt>
      <trkpt lat="43.74738" lon="6.32818">
        <ele>692.79998779297</ele>
        <time>2017-05-24T07:00:58.000Z</time>
      </trkpt>
      <trkpt lat="43.7474" lon="6.32815">
        <ele>696</ele>
        <time>2017-05-24T07:01:00.000Z</time>
      </trkpt>
      <trkpt lat="43.74748" lon="6.32803">
        <ele>688.59997558594</ele>
        <time>2017-05-24T07:01:09.000Z</time>
      </trkpt>
      <trkpt lat="43.74754" lon="6.32795">
        <ele>685.40002441406</ele>
        <time>2017-05-24T07:01:22.000Z</time>
      </trkpt>
      <trkpt lat="43.74755" lon="6.32791">
        <ele>679.79998779297</ele>
        <time>2017-05-24T07:01:34.000Z</time>
      </trkpt>
      <trkpt lat="43.74754" lon="6.32787">
        <ele>675.40002441406</ele>
        <time>2017-05-24T07:01:36.000Z</time>
      </trkpt>
      <trkpt lat="43.7475" lon="6.32779">
        <ele>664.20001220703</ele>
        <time>2017-05-24T07:01:38.000Z</time>
      </trkpt>
      <trkpt lat="43.74745" lon="6.32769">
        <ele>652.20001220703</ele>
        <time>2017-05-24T07:01:41.000Z</time>
      </trkpt>
      <trkpt lat="43.74741" lon="6.32761">
        <ele>647.20001220703</ele>
        <time>2017-05-24T07:01:43.000Z</time>
      </trkpt>
      <trkpt lat="43.74738" lon="6.32755">
        <ele>642.59997558594</ele>
        <time>2017-05-24T07:01:45.000Z</time>
      </trkpt>
      <trkpt lat="43.74736" lon="6.32751">
        <ele>638.79998779297</ele>
        <time>2017-05-24T07:01:46.000Z</time>
      </trkpt>
      <trkpt lat="43.74733" lon="6.32745">
        <ele>632.79998779297</ele>
        <time>2017-05-24T07:01:49.000Z</time>
      </trkpt>
      <trkpt lat="43.74733" lon="6.32744">
        <ele>632.59997558594</ele>
        <time>2017-05-24T07:02:34.000Z</time>
      </trkpt>
      <trkpt lat="43.74732" lon="6.32742">
        <ele>632.59997558594</ele>
        <time>2017-05-24T07:02:35.000Z</time>
      </trkpt>
      <trkpt lat="43.74731" lon="6.3274">
        <ele>632.59997558594</ele>
        <time>2017-05-24T07:02:38.000Z</time>
      </trkpt>
      <trkpt lat="43.74731" lon="6.32739">
        <ele>632.59997558594</ele>
        <time>2017-05-24T07:03:35.000Z</time>
      </trkpt>
      <trkpt lat="43.74731" lon="6.32738">
        <ele>632.40002441406</ele>
        <time>2017-05-24T07:03:36.000Z</time>
      </trkpt>
      <trkpt lat="43.74728" lon="6.32729">
        <ele>632</ele>
        <time>2017-05-24T07:03:43.000Z</time>
      </trkpt>
      <trkpt lat="43.74726" lon="6.32725">
        <ele>632</ele>
        <time>2017-05-24T07:03:49.000Z</time>
      </trkpt>
      <trkpt lat="43.74724" lon="6.32721">
        <ele>632</ele>
        <time>2017-05-24T07:03:50.000Z</time>
      </trkpt>
      <trkpt lat="43.74712" lon="6.32702">
        <ele>656.40002441406</ele>
        <time>2017-05-24T07:03:57.000Z</time>
      </trkpt>
      <trkpt lat="43.74713" lon="6.32702">
        <ele>656.79998779297</ele>
        <time>2017-05-24T07:07:08.000Z</time>
      </trkpt>
      <trkpt lat="43.74713" lon="6.32702">
        <ele>657.40002441406</ele>
        <time>2017-05-24T07:07:09.000Z</time>
      </trkpt>
      <trkpt lat="43.74714" lon="6.32701">
        <ele>656.79998779297</ele>
        <time>2017-05-24T07:07:12.000Z</time>
      </trkpt>
      <trkpt lat="43.74717" lon="6.32698">
        <ele>648.59997558594</ele>
        <time>2017-05-24T07:07:14.000Z</time>
      </trkpt>
      <trkpt lat="43.7472" lon="6.32695">
        <ele>642</ele>
        <time>2017-05-24T07:07:16.000Z</time>
      </trkpt>
      <trkpt lat="43.74723" lon="6.32693">
        <ele>635.59997558594</ele>
        <time>2017-05-24T07:07:18.000Z</time>
      </trkpt>
      <trkpt lat="43.74726" lon="6.3269">
        <ele>630.79998779297</ele>
        <time>2017-05-24T07:07:20.000Z</time>
      </trkpt>
      <trkpt lat="43.74728" lon="6.32689">
        <ele>625.59997558594</ele>
        <time>2017-05-24T07:07:22.000Z</time>
      </trkpt>
      <trkpt lat="43.7473" lon="6.32687">
        <ele>627.79998779297</ele>
        <time>2017-05-24T07:07:24.000Z</time>
      </trkpt>
      <trkpt lat="43.74731" lon="6.32687">
        <ele>627.79998779297</ele>
        <time>2017-05-24T07:09:48.000Z</time>
      </trkpt>
      <trkpt lat="43.74731" lon="6.32687">
        <ele>627.59997558594</ele>
        <time>2017-05-24T07:09:49.000Z</time>
      </trkpt>
      <trkpt lat="43.74732" lon="6.32687">
        <ele>627.59997558594</ele>
        <time>2017-05-24T07:09:51.000Z</time>
      </trkpt>
      <trkpt lat="43.74735" lon="6.32691">
        <ele>623.59997558594</ele>
        <time>2017-05-24T07:10:03.000Z</time>
      </trkpt>
      <trkpt lat="43.74729" lon="6.32695">
        <ele>625.20001220703</ele>
        <time>2017-05-24T07:10:24.000Z</time>
      </trkpt>
      <trkpt lat="43.74726" lon="6.32697">
        <ele>630.79998779297</ele>
        <time>2017-05-24T07:10:25.000Z</time>
      </trkpt>
      <trkpt lat="43.74722" lon="6.32704">
        <ele>640.20001220703</ele>
        <time>2017-05-24T07:10:34.000Z</time>
      </trkpt>
      <trkpt lat="43.74723" lon="6.32705">
        <ele>639.79998779297</ele>
        <time>2017-05-24T07:10:44.000Z</time>
      </trkpt>
      <trkpt lat="43.74723" lon="6.32706">
        <ele>639.20001220703</ele>
        <time>2017-05-24T07:10:45.000Z</time>
      </trkpt>
      <trkpt lat="43.74726" lon="6.32713">
        <ele>634</ele>
        <time>2017-05-24T07:10:58.000Z</time>
      </trkpt>
      <trkpt lat="43.74729" lon="6.32714">
        <ele>630</ele>
        <time>2017-05-24T07:11:27.000Z</time>
      </trkpt>
      <trkpt lat="43.7473" lon="6.32716">
        <ele>629.20001220703</ele>
        <time>2017-05-24T07:11:28.000Z</time>
      </trkpt>
      <trkpt lat="43.74738" lon="6.32721">
        <ele>627.20001220703</ele>
        <time>2017-05-24T07:11:35.000Z</time>
      </trkpt>
      <trkpt lat="43.74738" lon="6.32718">
        <ele>626.40002441406</ele>
        <time>2017-05-24T07:13:26.000Z</time>
      </trkpt>
      <trkpt lat="43.74738" lon="6.32716">
        <ele>625.79998779297</ele>
        <time>2017-05-24T07:13:27.000Z</time>
      </trkpt>
      <trkpt lat="43.74738" lon="6.32713">
        <ele>625.20001220703</ele>
        <time>2017-05-24T07:13:29.000Z</time>
      </trkpt>
      <trkpt lat="43.74737" lon="6.32706">
        <ele>624</ele>
        <time>2017-05-24T07:13:32.000Z</time>
      </trkpt>
      <trkpt lat="43.74737" lon="6.32702">
        <ele>623.20001220703</ele>
        <time>2017-05-24T07:13:35.000Z</time>
      </trkpt>
      <trkpt lat="43.74737" lon="6.32698">
        <ele>622.40002441406</ele>
        <time>2017-05-24T07:13:36.000Z</time>
      </trkpt>
      <trkpt lat="43.74737" lon="6.32696">
        <ele>622.59997558594</ele>
        <time>2017-05-24T07:13:38.000Z</time>
      </trkpt>
      <trkpt lat="43.74738" lon="6.32693">
        <ele>623</ele>
        <time>2017-05-24T07:13:40.000Z</time>
      </trkpt>
      <trkpt lat="43.74739" lon="6.32689">
        <ele>624.40002441406</ele>
        <time>2017-05-24T07:13:46.000Z</time>
      </trkpt>
      <trkpt lat="43.74741" lon="6.32686">
        <ele>628.59997558594</ele>
        <time>2017-05-24T07:13:54.000Z</time>
      </trkpt>
      <trkpt lat="43.74743" lon="6.32687">
        <ele>627.59997558594</ele>
        <time>2017-05-24T07:14:12.000Z</time>
      </trkpt>
      <trkpt lat="43.74745" lon="6.32687">
        <ele>627</ele>
        <time>2017-05-24T07:14:13.000Z</time>
      </trkpt>
      <trkpt lat="43.74761" lon="6.32691">
        <ele>622</ele>
        <time>2017-05-24T07:14:22.000Z</time>
      </trkpt>
      <trkpt lat="43.74762" lon="6.32692">
        <ele>622</ele>
        <time>2017-05-24T07:14:46.000Z</time>
      </trkpt>
      <trkpt lat="43.74763" lon="6.32693">
        <ele>622</ele>
        <time>2017-05-24T07:14:47.000Z</time>
      </trkpt>
      <trkpt lat="43.74767" lon="6.32698">
        <ele>622</ele>
        <time>2017-05-24T07:14:59.000Z</time>
      </trkpt>
      <trkpt lat="43.74775" lon="6.32706">
        <ele>621.40002441406</ele>
        <time>2017-05-24T07:15:02.000Z</time>
      </trkpt>
      <trkpt lat="43.74789" lon="6.32717">
        <ele>624</ele>
        <time>2017-05-24T07:15:06.000Z</time>
      </trkpt>
      <trkpt lat="43.74808" lon="6.32731">
        <ele>644.40002441406</ele>
        <time>2017-05-24T07:15:15.000Z</time>
      </trkpt>
      <trkpt lat="43.74826" lon="6.32746">
        <ele>678.40002441406</ele>
        <time>2017-05-24T07:15:24.000Z</time>
      </trkpt>
      <trkpt lat="43.74828" lon="6.32748">
        <ele>687.79998779297</ele>
        <time>2017-05-24T07:15:31.000Z</time>
      </trkpt>
      <trkpt lat="43.7483" lon="6.32748">
        <ele>692.79998779297</ele>
        <time>2017-05-24T07:16:13.000Z</time>
      </trkpt>
      <trkpt lat="43.74832" lon="6.32749">
        <ele>696.79998779297</ele>
        <time>2017-05-24T07:16:14.000Z</time>
      </trkpt>
      <trkpt lat="43.74849" lon="6.3275">
        <ele>716.20001220703</ele>
        <time>2017-05-24T07:16:24.000Z</time>
      </trkpt>
      <trkpt lat="43.74869" lon="6.32736">
        <ele>719.59997558594</ele>
        <time>2017-05-24T07:16:34.000Z</time>
      </trkpt>
      <trkpt lat="43.74873" lon="6.32734">
        <ele>722</ele>
        <time>2017-05-24T07:17:27.000Z</time>
      </trkpt>
      <trkpt lat="43.74876" lon="6.32732">
        <ele>724</ele>
        <time>2017-05-24T07:17:28.000Z</time>
      </trkpt>
      <trkpt lat="43.74884" lon="6.32727">
        <ele>720.79998779297</ele>
        <time>2017-05-24T07:17:31.000Z</time>
      </trkpt>
      <trkpt lat="43.74896" lon="6.3272">
        <ele>705.59997558594</ele>
        <time>2017-05-24T07:17:35.000Z</time>
      </trkpt>
      <trkpt lat="43.749" lon="6.32717">
        <ele>702.79998779297</ele>
        <time>2017-05-24T07:17:39.000Z</time>
      </trkpt>
      <trkpt lat="43.74901" lon="6.32717">
        <ele>702.79998779297</ele>
        <time>2017-05-24T07:17:41.000Z</time>
      </trkpt>
      <trkpt lat="43.74905" lon="6.32715">
        <ele>704.40002441406</ele>
        <time>2017-05-24T07:17:43.000Z</time>
      </trkpt>
      <trkpt lat="43.74909" lon="6.32715">
        <ele>706.40002441406</ele>
        <time>2017-05-24T07:17:47.000Z</time>
      </trkpt>
      <trkpt lat="43.7491" lon="6.32714">
        <ele>707.20001220703</ele>
        <time>2017-05-24T07:17:50.000Z</time>
      </trkpt>
      <trkpt lat="43.74932" lon="6.32708">
        <ele>713.40002441406</ele>
        <time>2017-05-24T07:17:54.000Z</time>
      </trkpt>
      <trkpt lat="43.74949" lon="6.32702">
        <ele>747.59997558594</ele>
        <time>2017-05-24T07:17:57.000Z</time>
      </trkpt>
      <trkpt lat="43.7496" lon="6.32698">
        <ele>758.40002441406</ele>
        <time>2017-05-24T07:17:59.000Z</time>
      </trkpt>
      <trkpt lat="43.74968" lon="6.32695">
        <ele>759.20001220703</ele>
        <time>2017-05-24T07:18:01.000Z</time>
      </trkpt>
      <trkpt lat="43.74982" lon="6.3269">
        <ele>760.20001220703</ele>
        <time>2017-05-24T07:18:04.000Z</time>
      </trkpt>
      <trkpt lat="43.74994" lon="6.32682">
        <ele>734.20001220703</ele>
        <time>2017-05-24T07:18:10.000Z</time>
      </trkpt>
      <trkpt lat="43.75006" lon="6.32673">
        <ele>706.40002441406</ele>
        <time>2017-05-24T07:18:14.000Z</time>
      </trkpt>
      <trkpt lat="43.75008" lon="6.32671">
        <ele>697.20001220703</ele>
        <time>2017-05-24T07:18:18.000Z</time>
      </trkpt>
      <trkpt lat="43.75014" lon="6.32662">
        <ele>666.79998779297</ele>
        <time>2017-05-24T07:18:20.000Z</time>
      </trkpt>
      <trkpt lat="43.75021" lon="6.32655">
        <ele>653.79998779297</ele>
        <time>2017-05-24T07:18:22.000Z</time>
      </trkpt>
      <trkpt lat="43.75035" lon="6.32637">
        <ele>635.20001220703</ele>
        <time>2017-05-24T07:18:26.000Z</time>
      </trkpt>
      <trkpt lat="43.75039" lon="6.32633">
        <ele>630.40002441406</ele>
        <time>2017-05-24T07:18:41.000Z</time>
      </trkpt>
      <trkpt lat="43.75055" lon="6.32611">
        <ele>614.59997558594</ele>
        <time>2017-05-24T07:18:58.000Z</time>
      </trkpt>
      <trkpt lat="43.75053" lon="6.32606">
        <ele>611.20001220703</ele>
        <time>2017-05-24T07:21:31.000Z</time>
      </trkpt>
      <trkpt lat="43.75051" lon="6.32602">
        <ele>609.59997558594</ele>
        <time>2017-05-24T07:21:32.000Z</time>
      </trkpt>
      <trkpt lat="43.7505" lon="6.32598">
        <ele>608.59997558594</ele>
        <time>2017-05-24T07:21:34.000Z</time>
      </trkpt>
      <trkpt lat="43.75048" lon="6.32593">
        <ele>606.79998779297</ele>
        <time>2017-05-24T07:21:36.000Z</time>
      </trkpt>
      <trkpt lat="43.75047" lon="6.32588">
        <ele>604.40002441406</ele>
        <time>2017-05-24T07:21:38.000Z</time>
      </trkpt>
      <trkpt lat="43.75047" lon="6.32588">
        <ele>604.40002441406</ele>
        <time>2017-05-24T07:26:46.000Z</time>
      </trkpt>
      <trkpt lat="43.75047" lon="6.32588">
        <ele>604.40002441406</ele>
        <time>2017-05-24T07:26:47.000Z</time>
      </trkpt>
      <trkpt lat="43.75063" lon="6.32588">
        <ele>606</ele>
        <time>2017-05-24T07:26:57.000Z</time>
      </trkpt>
      <trkpt lat="43.75064" lon="6.32588">
        <ele>606.20001220703</ele>
        <time>2017-05-24T07:29:16.000Z</time>
      </trkpt>
      <trkpt lat="43.75065" lon="6.32588">
        <ele>606.20001220703</ele>
        <time>2017-05-24T07:29:17.000Z</time>
      </trkpt>
      <trkpt lat="43.75066" lon="6.32588">
        <ele>606.20001220703</ele>
        <time>2017-05-24T07:29:19.000Z</time>
      </trkpt>
      <trkpt lat="43.75074" lon="6.32586">
        <ele>608.20001220703</ele>
        <time>2017-05-24T07:29:21.000Z</time>
      </trkpt>
      <trkpt lat="43.75082" lon="6.32584">
        <ele>611</ele>
        <time>2017-05-24T07:29:23.000Z</time>
      </trkpt>
      <trkpt lat="43.7509" lon="6.32583">
        <ele>613.79998779297</ele>
        <time>2017-05-24T07:29:25.000Z</time>
      </trkpt>
      <trkpt lat="43.75095" lon="6.32582">
        <ele>618</ele>
        <time>2017-05-24T07:29:27.000Z</time>
      </trkpt>
      <trkpt lat="43.751" lon="6.32582">
        <ele>618.79998779297</ele>
        <time>2017-05-24T07:29:29.000Z</time>
      </trkpt>
      <trkpt lat="43.75103" lon="6.32582">
        <ele>619.59997558594</ele>
        <time>2017-05-24T07:29:30.000Z</time>
      </trkpt>
      <trkpt lat="43.75106" lon="6.3258">
        <ele>618.20001220703</ele>
        <time>2017-05-24T07:29:54.000Z</time>
      </trkpt>
      <trkpt lat="43.75109" lon="6.32578">
        <ele>617.20001220703</ele>
        <time>2017-05-24T07:29:55.000Z</time>
      </trkpt>
      <trkpt lat="43.75112" lon="6.32576">
        <ele>617.40002441406</ele>
        <time>2017-05-24T07:29:57.000Z</time>
      </trkpt>
      <trkpt lat="43.7512" lon="6.32571">
        <ele>620.40002441406</ele>
        <time>2017-05-24T07:29:59.000Z</time>
      </trkpt>
      <trkpt lat="43.75126" lon="6.32567">
        <ele>625.40002441406</ele>
        <time>2017-05-24T07:30:01.000Z</time>
      </trkpt>
      <trkpt lat="43.7513" lon="6.32564">
        <ele>629.40002441406</ele>
        <time>2017-05-24T07:30:02.000Z</time>
      </trkpt>
      <trkpt lat="43.75132" lon="6.32563">
        <ele>629.79998779297</ele>
        <time>2017-05-24T07:30:34.000Z</time>
      </trkpt>
      <trkpt lat="43.75133" lon="6.32562">
        <ele>629.40002441406</ele>
        <time>2017-05-24T07:30:35.000Z</time>
      </trkpt>
      <trkpt lat="43.75135" lon="6.3256">
        <ele>629</ele>
        <time>2017-05-24T07:30:37.000Z</time>
      </trkpt>
      <trkpt lat="43.75142" lon="6.32555">
        <ele>627.79998779297</ele>
        <time>2017-05-24T07:30:40.000Z</time>
      </trkpt>
      <trkpt lat="43.75148" lon="6.3255">
        <ele>629.40002441406</ele>
        <time>2017-05-24T07:30:42.000Z</time>
      </trkpt>
      <trkpt lat="43.75156" lon="6.32545">
        <ele>638.79998779297</ele>
        <time>2017-05-24T07:30:44.000Z</time>
      </trkpt>
      <trkpt lat="43.75163" lon="6.32538">
        <ele>648.40002441406</ele>
        <time>2017-05-24T07:30:47.000Z</time>
      </trkpt>
      <trkpt lat="43.75177" lon="6.32528">
        <ele>663</ele>
        <time>2017-05-24T07:30:50.000Z</time>
      </trkpt>
      <trkpt lat="43.75186" lon="6.3252">
        <ele>669</ele>
        <time>2017-05-24T07:30:52.000Z</time>
      </trkpt>
      <trkpt lat="43.75193" lon="6.32514">
        <ele>673.20001220703</ele>
        <time>2017-05-24T07:30:54.000Z</time>
      </trkpt>
      <trkpt lat="43.75198" lon="6.32509">
        <ele>676.20001220703</ele>
        <time>2017-05-24T07:30:56.000Z</time>
      </trkpt>
      <trkpt lat="43.75201" lon="6.32507">
        <ele>678.40002441406</ele>
        <time>2017-05-24T07:30:58.000Z</time>
      </trkpt>
      <trkpt lat="43.75203" lon="6.32505">
        <ele>679.59997558594</ele>
        <time>2017-05-24T07:30:59.000Z</time>
      </trkpt>
      <trkpt lat="43.75203" lon="6.32505">
        <ele>679.59997558594</ele>
        <time>2017-05-24T07:32:24.000Z</time>
      </trkpt>
      <trkpt lat="43.75203" lon="6.32505">
        <ele>679.59997558594</ele>
        <time>2017-05-24T07:32:25.000Z</time>
      </trkpt>
      <trkpt lat="43.75203" lon="6.32505">
        <ele>679.40002441406</ele>
        <time>2017-05-24T07:32:27.000Z</time>
      </trkpt>
      <trkpt lat="43.75204" lon="6.32503">
        <ele>680.20001220703</ele>
        <time>2017-05-24T07:32:29.000Z</time>
      </trkpt>
      <trkpt lat="43.75206" lon="6.32502">
        <ele>680.79998779297</ele>
        <time>2017-05-24T07:32:31.000Z</time>
      </trkpt>
      <trkpt lat="43.75207" lon="6.32501">
        <ele>681.79998779297</ele>
        <time>2017-05-24T07:32:52.000Z</time>
      </trkpt>
      <trkpt lat="43.75209" lon="6.325">
        <ele>683.79998779297</ele>
        <time>2017-05-24T07:32:53.000Z</time>
      </trkpt>
      <trkpt lat="43.7523" lon="6.32479">
        <ele>701.59997558594</ele>
        <time>2017-05-24T07:32:59.000Z</time>
      </trkpt>
      <trkpt lat="43.75246" lon="6.32462">
        <ele>721.20001220703</ele>
        <time>2017-05-24T07:33:01.000Z</time>
      </trkpt>
      <trkpt lat="43.75257" lon="6.32447">
        <ele>725.59997558594</ele>
        <time>2017-05-24T07:33:03.000Z</time>
      </trkpt>
      <trkpt lat="43.75264" lon="6.32437">
        <ele>725.20001220703</ele>
        <time>2017-05-24T07:33:05.000Z</time>
      </trkpt>
      <trkpt lat="43.75267" lon="6.32433">
        <ele>726.40002441406</ele>
        <time>2017-05-24T07:33:07.000Z</time>
      </trkpt>
      <trkpt lat="43.75269" lon="6.32429">
        <ele>727.20001220703</ele>
        <time>2017-05-24T07:33:08.000Z</time>
      </trkpt>
      <trkpt lat="43.75271" lon="6.32423">
        <ele>727.40002441406</ele>
        <time>2017-05-24T07:33:10.000Z</time>
      </trkpt>
      <trkpt lat="43.75273" lon="6.32419">
        <ele>726</ele>
        <time>2017-05-24T07:33:11.000Z</time>
      </trkpt>
      <trkpt lat="43.75275" lon="6.32414">
        <ele>724.79998779297</ele>
        <time>2017-05-24T07:33:13.000Z</time>
      </trkpt>
      <trkpt lat="43.75275" lon="6.32411">
        <ele>724</ele>
        <time>2017-05-24T07:33:15.000Z</time>
      </trkpt>
      <trkpt lat="43.75276" lon="6.32409">
        <ele>723.59997558594</ele>
        <time>2017-05-24T07:33:17.000Z</time>
      </trkpt>
      <trkpt lat="43.75277" lon="6.32408">
        <ele>723.59997558594</ele>
        <time>2017-05-24T07:34:37.000Z</time>
      </trkpt>
      <trkpt lat="43.75277" lon="6.32407">
        <ele>723.40002441406</ele>
        <time>2017-05-24T07:34:38.000Z</time>
      </trkpt>
      <trkpt lat="43.75277" lon="6.32403">
        <ele>723</ele>
        <time>2017-05-24T07:34:44.000Z</time>
      </trkpt>
      <trkpt lat="43.7528" lon="6.32396">
        <ele>720</ele>
        <time>2017-05-24T07:35:54.000Z</time>
      </trkpt>
      <trkpt lat="43.75281" lon="6.32391">
        <ele>718</ele>
        <time>2017-05-24T07:35:55.000Z</time>
      </trkpt>
      <trkpt lat="43.75285" lon="6.3238">
        <ele>714.79998779297</ele>
        <time>2017-05-24T07:36:01.000Z</time>
      </trkpt>
      <trkpt lat="43.75285" lon="6.32367">
        <ele>713.79998779297</ele>
        <time>2017-05-24T07:36:08.000Z</time>
      </trkpt>
      <trkpt lat="43.75284" lon="6.32364">
        <ele>713.59997558594</ele>
        <time>2017-05-24T07:37:15.000Z</time>
      </trkpt>
      <trkpt lat="43.75283" lon="6.32362">
        <ele>713.59997558594</ele>
        <time>2017-05-24T07:37:16.000Z</time>
      </trkpt>
      <trkpt lat="43.75283" lon="6.32361">
        <ele>713.59997558594</ele>
        <time>2017-05-24T07:37:18.000Z</time>
      </trkpt>
      <trkpt lat="43.75282" lon="6.32356">
        <ele>713.40002441406</ele>
        <time>2017-05-24T07:37:21.000Z</time>
      </trkpt>
      <trkpt lat="43.75281" lon="6.32352">
        <ele>713.40002441406</ele>
        <time>2017-05-24T07:37:22.000Z</time>
      </trkpt>
      <trkpt lat="43.7528" lon="6.32347">
        <ele>713.20001220703</ele>
        <time>2017-05-24T07:37:24.000Z</time>
      </trkpt>
      <trkpt lat="43.75279" lon="6.32343">
        <ele>713.20001220703</ele>
        <time>2017-05-24T07:37:25.000Z</time>
      </trkpt>
      <trkpt lat="43.75278" lon="6.3234">
        <ele>713</ele>
        <time>2017-05-24T07:37:26.000Z</time>
      </trkpt>
      <trkpt lat="43.75278" lon="6.32339">
        <ele>713</ele>
        <time>2017-05-24T07:38:06.000Z</time>
      </trkpt>
      <trkpt lat="43.75278" lon="6.32339">
        <ele>713</ele>
        <time>2017-05-24T07:38:07.000Z</time>
      </trkpt>
      <trkpt lat="43.75278" lon="6.32338">
        <ele>713</ele>
        <time>2017-05-24T07:38:14.000Z</time>
      </trkpt>
      <trkpt lat="43.75277" lon="6.32336">
        <ele>713</ele>
        <time>2017-05-24T07:38:19.000Z</time>
      </trkpt>
      <trkpt lat="43.75277" lon="6.32335">
        <ele>713</ele>
        <time>2017-05-24T07:38:20.000Z</time>
      </trkpt>
      <trkpt lat="43.75277" lon="6.32334">
        <ele>712.79998779297</ele>
        <time>2017-05-24T07:38:22.000Z</time>
      </trkpt>
      <trkpt lat="43.75276" lon="6.32333">
        <ele>712.79998779297</ele>
        <time>2017-05-24T07:38:23.000Z</time>
      </trkpt>
      <trkpt lat="43.75276" lon="6.32332">
        <ele>712.79998779297</ele>
        <time>2017-05-24T07:39:04.000Z</time>
      </trkpt>
      <trkpt lat="43.75276" lon="6.32332">
        <ele>712.79998779297</ele>
        <time>2017-05-24T07:39:05.000Z</time>
      </trkpt>
      <trkpt lat="43.75275" lon="6.3233">
        <ele>712.79998779297</ele>
        <time>2017-05-24T07:39:07.000Z</time>
      </trkpt>
      <trkpt lat="43.75275" lon="6.32329">
        <ele>712.79998779297</ele>
        <time>2017-05-24T07:39:09.000Z</time>
      </trkpt>
      <trkpt lat="43.75273" lon="6.32322">
        <ele>711.59997558594</ele>
        <time>2017-05-24T07:39:14.000Z</time>
      </trkpt>
      <trkpt lat="43.75273" lon="6.32322">
        <ele>711.59997558594</ele>
        <time>2017-05-24T07:39:16.000Z</time>
      </trkpt>
      <trkpt lat="43.75273" lon="6.32321">
        <ele>711.59997558594</ele>
        <time>2017-05-24T07:39:17.000Z</time>
      </trkpt>
      <trkpt lat="43.75272" lon="6.32319">
        <ele>711.20001220703</ele>
        <time>2017-05-24T07:39:19.000Z</time>
      </trkpt>
      <trkpt lat="43.75272" lon="6.32318">
        <ele>711.20001220703</ele>
        <time>2017-05-24T07:40:31.000Z</time>
      </trkpt>
      <trkpt lat="43.75272" lon="6.32317">
        <ele>711</ele>
        <time>2017-05-24T07:40:32.000Z</time>
      </trkpt>
      <trkpt lat="43.75271" lon="6.32316">
        <ele>710.79998779297</ele>
        <time>2017-05-24T07:40:35.000Z</time>
      </trkpt>
      <trkpt lat="43.7527" lon="6.32314">
        <ele>710.40002441406</ele>
        <time>2017-05-24T07:40:37.000Z</time>
      </trkpt>
      <trkpt lat="43.7527" lon="6.32311">
        <ele>710.20001220703</ele>
        <time>2017-05-24T07:40:39.000Z</time>
      </trkpt>
      <trkpt lat="43.75269" lon="6.32309">
        <ele>710.20001220703</ele>
        <time>2017-05-24T07:40:40.000Z</time>
      </trkpt>
      <trkpt lat="43.75269" lon="6.32303">
        <ele>709.79998779297</ele>
        <time>2017-05-24T07:40:47.000Z</time>
      </trkpt>
      <trkpt lat="43.75269" lon="6.32303">
        <ele>709.79998779297</ele>
        <time>2017-05-24T07:42:00.000Z</time>
      </trkpt>
      <trkpt lat="43.75269" lon="6.32302">
        <ele>709.59997558594</ele>
        <time>2017-05-24T07:42:01.000Z</time>
      </trkpt>
      <trkpt lat="43.75269" lon="6.32295">
        <ele>709.79998779297</ele>
        <time>2017-05-24T07:42:13.000Z</time>
      </trkpt>
      <trkpt lat="43.75269" lon="6.32291">
        <ele>710</ele>
        <time>2017-05-24T07:42:19.000Z</time>
      </trkpt>
      <trkpt lat="43.75269" lon="6.32289">
        <ele>710</ele>
        <time>2017-05-24T07:42:21.000Z</time>
      </trkpt>
      <trkpt lat="43.75269" lon="6.32286">
        <ele>710</ele>
        <time>2017-05-24T07:42:24.000Z</time>
      </trkpt>
      <trkpt lat="43.7527" lon="6.32283">
        <ele>707.59997558594</ele>
        <time>2017-05-24T07:42:26.000Z</time>
      </trkpt>
      <trkpt lat="43.75271" lon="6.32279">
        <ele>703</ele>
        <time>2017-05-24T07:42:28.000Z</time>
      </trkpt>
      <trkpt lat="43.75272" lon="6.32275">
        <ele>698.79998779297</ele>
        <time>2017-05-24T07:42:30.000Z</time>
      </trkpt>
      <trkpt lat="43.75314" lon="6.32271">
        <ele>691.40002441406</ele>
        <time>2017-05-24T07:42:47.000Z</time>
      </trkpt>
      <trkpt lat="43.75331" lon="6.32268">
        <ele>681.40002441406</ele>
        <time>2017-05-24T07:42:56.000Z</time>
      </trkpt>
      <trkpt lat="43.7534" lon="6.32264">
        <ele>674.20001220703</ele>
        <time>2017-05-24T07:43:02.000Z</time>
      </trkpt>
      <trkpt lat="43.75338" lon="6.32259">
        <ele>674.20001220703</ele>
        <time>2017-05-24T07:43:08.000Z</time>
      </trkpt>
      <trkpt lat="43.75336" lon="6.32258">
        <ele>675</ele>
        <time>2017-05-24T07:44:36.000Z</time>
      </trkpt>
      <trkpt lat="43.75335" lon="6.32256">
        <ele>675.59997558594</ele>
        <time>2017-05-24T07:44:37.000Z</time>
      </trkpt>
      <trkpt lat="43.75334" lon="6.32254">
        <ele>676.40002441406</ele>
        <time>2017-05-24T07:44:42.000Z</time>
      </trkpt>
      <trkpt lat="43.75333" lon="6.32253">
        <ele>677</ele>
        <time>2017-05-24T07:44:46.000Z</time>
      </trkpt>
      <trkpt lat="43.75332" lon="6.32252">
        <ele>677.40002441406</ele>
        <time>2017-05-24T07:44:47.000Z</time>
      </trkpt>
      <trkpt lat="43.75331" lon="6.32252">
        <ele>677.59997558594</ele>
        <time>2017-05-24T07:44:48.000Z</time>
      </trkpt>
      <trkpt lat="43.75336" lon="6.32248">
        <ele>673</ele>
        <time>2017-05-24T07:50:35.000Z</time>
      </trkpt>
      <trkpt lat="43.75339" lon="6.32246">
        <ele>669.79998779297</ele>
        <time>2017-05-24T07:50:36.000Z</time>
      </trkpt>
      <trkpt lat="43.7535" lon="6.32241">
        <ele>670.40002441406</ele>
        <time>2017-05-24T07:50:42.000Z</time>
      </trkpt>
      <trkpt lat="43.75352" lon="6.3224">
        <ele>671.59997558594</ele>
        <time>2017-05-24T07:51:02.000Z</time>
      </trkpt>
      <trkpt lat="43.75352" lon="6.32238">
        <ele>672.79998779297</ele>
        <time>2017-05-24T07:51:03.000Z</time>
      </trkpt>
      <trkpt lat="43.75356" lon="6.32234">
        <ele>676.20001220703</ele>
        <time>2017-05-24T07:51:11.000Z</time>
      </trkpt>
      <trkpt lat="43.75357" lon="6.32233">
        <ele>676</ele>
        <time>2017-05-24T07:51:14.000Z</time>
      </trkpt>
      <trkpt lat="43.75358" lon="6.32231">
        <ele>675.20001220703</ele>
        <time>2017-05-24T07:51:15.000Z</time>
      </trkpt>
      <trkpt lat="43.75358" lon="6.3223">
        <ele>674.79998779297</ele>
        <time>2017-05-24T07:51:57.000Z</time>
      </trkpt>
      <trkpt lat="43.75359" lon="6.32229">
        <ele>674.40002441406</ele>
        <time>2017-05-24T07:51:58.000Z</time>
      </trkpt>
      <trkpt lat="43.75359" lon="6.32226">
        <ele>674</ele>
        <time>2017-05-24T07:52:01.000Z</time>
      </trkpt>
      <trkpt lat="43.75362" lon="6.32214">
        <ele>671</ele>
        <time>2017-05-24T07:52:03.000Z</time>
      </trkpt>
      <trkpt lat="43.75364" lon="6.32204">
        <ele>668.40002441406</ele>
        <time>2017-05-24T07:52:06.000Z</time>
      </trkpt>
      <trkpt lat="43.75366" lon="6.32199">
        <ele>667</ele>
        <time>2017-05-24T07:52:49.000Z</time>
      </trkpt>
      <trkpt lat="43.75367" lon="6.32196">
        <ele>666</ele>
        <time>2017-05-24T07:52:50.000Z</time>
      </trkpt>
      <trkpt lat="43.75368" lon="6.32192">
        <ele>665.40002441406</ele>
        <time>2017-05-24T07:52:51.000Z</time>
      </trkpt>
      <trkpt lat="43.7537" lon="6.32186">
        <ele>665.20001220703</ele>
        <time>2017-05-24T07:52:59.000Z</time>
      </trkpt>
      <trkpt lat="43.75372" lon="6.32181">
        <ele>665.59997558594</ele>
        <time>2017-05-24T07:53:00.000Z</time>
      </trkpt>
      <trkpt lat="43.75374" lon="6.32175">
        <ele>666</ele>
        <time>2017-05-24T07:53:02.000Z</time>
      </trkpt>
      <trkpt lat="43.75377" lon="6.32168">
        <ele>666.59997558594</ele>
        <time>2017-05-24T07:53:04.000Z</time>
      </trkpt>
      <trkpt lat="43.7538" lon="6.32161">
        <ele>668.20001220703</ele>
        <time>2017-05-24T07:53:07.000Z</time>
      </trkpt>
      <trkpt lat="43.75382" lon="6.32157">
        <ele>669.59997558594</ele>
        <time>2017-05-24T07:53:10.000Z</time>
      </trkpt>
      <trkpt lat="43.75383" lon="6.32153">
        <ele>670.59997558594</ele>
        <time>2017-05-24T07:53:15.000Z</time>
      </trkpt>
      <trkpt lat="43.75385" lon="6.3215">
        <ele>671.40002441406</ele>
        <time>2017-05-24T07:53:16.000Z</time>
      </trkpt>
      <trkpt lat="43.75386" lon="6.32147">
        <ele>671.79998779297</ele>
        <time>2017-05-24T07:53:19.000Z</time>
      </trkpt>
      <trkpt lat="43.75387" lon="6.32145">
        <ele>671.79998779297</ele>
        <time>2017-05-24T07:56:19.000Z</time>
      </trkpt>
      <trkpt lat="43.75388" lon="6.32143">
        <ele>672</ele>
        <time>2017-05-24T07:56:20.000Z</time>
      </trkpt>
      <trkpt lat="43.75389" lon="6.32141">
        <ele>672.20001220703</ele>
        <time>2017-05-24T07:56:22.000Z</time>
      </trkpt>
      <trkpt lat="43.7539" lon="6.3214">
        <ele>672.40002441406</ele>
        <time>2017-05-24T07:57:27.000Z</time>
      </trkpt>
      <trkpt lat="43.75391" lon="6.3214">
        <ele>672.40002441406</ele>
        <time>2017-05-24T07:57:28.000Z</time>
      </trkpt>
      <trkpt lat="43.75391" lon="6.32139">
        <ele>672.40002441406</ele>
        <time>2017-05-24T07:57:30.000Z</time>
      </trkpt>
      <trkpt lat="43.75392" lon="6.32137">
        <ele>672.59997558594</ele>
        <time>2017-05-24T07:57:32.000Z</time>
      </trkpt>
      <trkpt lat="43.75393" lon="6.32136">
        <ele>672.79998779297</ele>
        <time>2017-05-24T07:57:34.000Z</time>
      </trkpt>
      <trkpt lat="43.75395" lon="6.32133">
        <ele>673.40002441406</ele>
        <time>2017-05-24T07:57:36.000Z</time>
      </trkpt>
      <trkpt lat="43.754" lon="6.32127">
        <ele>673</ele>
        <time>2017-05-24T07:57:38.000Z</time>
      </trkpt>
      <trkpt lat="43.75406" lon="6.32121">
        <ele>672.40002441406</ele>
        <time>2017-05-24T07:57:40.000Z</time>
      </trkpt>
      <trkpt lat="43.75412" lon="6.32114">
        <ele>672.40002441406</ele>
        <time>2017-05-24T07:57:42.000Z</time>
      </trkpt>
      <trkpt lat="43.75417" lon="6.32109">
        <ele>672.59997558594</ele>
        <time>2017-05-24T07:57:43.000Z</time>
      </trkpt>
      <trkpt lat="43.75418" lon="6.32108">
        <ele>672.40002441406</ele>
        <time>2017-05-24T07:58:07.000Z</time>
      </trkpt>
      <trkpt lat="43.7542" lon="6.32107">
        <ele>672.40002441406</ele>
        <time>2017-05-24T07:58:08.000Z</time>
      </trkpt>
      <trkpt lat="43.75425" lon="6.32104">
        <ele>673.40002441406</ele>
        <time>2017-05-24T07:58:10.000Z</time>
      </trkpt>
      <trkpt lat="43.7543" lon="6.321">
        <ele>676</ele>
        <time>2017-05-24T07:58:12.000Z</time>
      </trkpt>
      <trkpt lat="43.75433" lon="6.32097">
        <ele>678</ele>
        <time>2017-05-24T07:58:14.000Z</time>
      </trkpt>
      <trkpt lat="43.75441" lon="6.32073">
        <ele>689</ele>
        <time>2017-05-24T07:59:24.000Z</time>
      </trkpt>
      <trkpt lat="43.75445" lon="6.32061">
        <ele>695.20001220703</ele>
        <time>2017-05-24T07:59:25.000Z</time>
      </trkpt>
      <trkpt lat="43.75446" lon="6.32057">
        <ele>697.40002441406</ele>
        <time>2017-05-24T07:59:28.000Z</time>
      </trkpt>
      <trkpt lat="43.75446" lon="6.32053">
        <ele>699</ele>
        <time>2017-05-24T07:59:41.000Z</time>
      </trkpt>
      <trkpt lat="43.75446" lon="6.32049">
        <ele>700.20001220703</ele>
        <time>2017-05-24T07:59:42.000Z</time>
      </trkpt>
      <trkpt lat="43.75446" lon="6.32049">
        <ele>700.40002441406</ele>
        <time>2017-05-24T07:59:44.000Z</time>
      </trkpt>
      <trkpt lat="43.75446" lon="6.32045">
        <ele>701.20001220703</ele>
        <time>2017-05-24T07:59:46.000Z</time>
      </trkpt>
      <trkpt lat="43.75447" lon="6.32041">
        <ele>702</ele>
        <time>2017-05-24T07:59:47.000Z</time>
      </trkpt>
      <trkpt lat="43.75447" lon="6.3204">
        <ele>702.40002441406</ele>
        <time>2017-05-24T08:00:14.000Z</time>
      </trkpt>
      <trkpt lat="43.75447" lon="6.32038">
        <ele>702.59997558594</ele>
        <time>2017-05-24T08:00:15.000Z</time>
      </trkpt>
      <trkpt lat="43.75449" lon="6.32035">
        <ele>703.40002441406</ele>
        <time>2017-05-24T08:00:17.000Z</time>
      </trkpt>
      <trkpt lat="43.75451" lon="6.32029">
        <ele>704.79998779297</ele>
        <time>2017-05-24T08:00:19.000Z</time>
      </trkpt>
      <trkpt lat="43.75452" lon="6.32025">
        <ele>705.59997558594</ele>
        <time>2017-05-24T08:00:20.000Z</time>
      </trkpt>
      <trkpt lat="43.75453" lon="6.32019">
        <ele>708</ele>
        <time>2017-05-24T08:00:26.000Z</time>
      </trkpt>
      <trkpt lat="43.75454" lon="6.32015">
        <ele>710</ele>
        <time>2017-05-24T08:00:27.000Z</time>
      </trkpt>
      <trkpt lat="43.75455" lon="6.32011">
        <ele>712</ele>
        <time>2017-05-24T08:00:29.000Z</time>
      </trkpt>
      <trkpt lat="43.75457" lon="6.32007">
        <ele>714.20001220703</ele>
        <time>2017-05-24T08:00:31.000Z</time>
      </trkpt>
      <trkpt lat="43.75459" lon="6.32002">
        <ele>716.59997558594</ele>
        <time>2017-05-24T08:00:33.000Z</time>
      </trkpt>
      <trkpt lat="43.7546" lon="6.31998">
        <ele>717</ele>
        <time>2017-05-24T08:00:35.000Z</time>
      </trkpt>
      <trkpt lat="43.75464" lon="6.31982">
        <ele>719.40002441406</ele>
        <time>2017-05-24T08:00:43.000Z</time>
      </trkpt>
      <trkpt lat="43.75465" lon="6.31981">
        <ele>719.79998779297</ele>
        <time>2017-05-24T08:00:45.000Z</time>
      </trkpt>
      <trkpt lat="43.75465" lon="6.3198">
        <ele>719.79998779297</ele>
        <time>2017-05-24T08:01:13.000Z</time>
      </trkpt>
      <trkpt lat="43.75464" lon="6.31979">
        <ele>719.59997558594</ele>
        <time>2017-05-24T08:01:14.000Z</time>
      </trkpt>
      <trkpt lat="43.75463" lon="6.31977">
        <ele>719.40002441406</ele>
        <time>2017-05-24T08:01:17.000Z</time>
      </trkpt>
      <trkpt lat="43.75463" lon="6.31974">
        <ele>719.20001220703</ele>
        <time>2017-05-24T08:02:03.000Z</time>
      </trkpt>
      <trkpt lat="43.75462" lon="6.31972">
        <ele>718.79998779297</ele>
        <time>2017-05-24T08:02:04.000Z</time>
      </trkpt>
      <trkpt lat="43.75461" lon="6.3197">
        <ele>718.59997558594</ele>
        <time>2017-05-24T08:02:05.000Z</time>
      </trkpt>
      <trkpt lat="43.75461" lon="6.31969">
        <ele>718.59997558594</ele>
        <time>2017-05-24T08:03:21.000Z</time>
      </trkpt>
      <trkpt lat="43.7546" lon="6.31968">
        <ele>718.59997558594</ele>
        <time>2017-05-24T08:03:22.000Z</time>
      </trkpt>
      <trkpt lat="43.75459" lon="6.31953">
        <ele>722</ele>
        <time>2017-05-24T08:03:31.000Z</time>
      </trkpt>
      <trkpt lat="43.75458" lon="6.31951">
        <ele>722.40002441406</ele>
        <time>2017-05-24T08:05:47.000Z</time>
      </trkpt>
      <trkpt lat="43.75457" lon="6.31949">
        <ele>722.59997558594</ele>
        <time>2017-05-24T08:05:48.000Z</time>
      </trkpt>
      <trkpt lat="43.75453" lon="6.31937">
        <ele>725.20001220703</ele>
        <time>2017-05-24T08:06:02.000Z</time>
      </trkpt>
      <trkpt lat="43.75448" lon="6.31919">
        <ele>728.40002441406</ele>
        <time>2017-05-24T08:06:08.000Z</time>
      </trkpt>
      <trkpt lat="43.75448" lon="6.31918">
        <ele>728.59997558594</ele>
        <time>2017-05-24T08:07:05.000Z</time>
      </trkpt>
      <trkpt lat="43.75447" lon="6.31918">
        <ele>728.79998779297</ele>
        <time>2017-05-24T08:07:06.000Z</time>
      </trkpt>
      <trkpt lat="43.75447" lon="6.31915">
        <ele>729.40002441406</ele>
        <time>2017-05-24T08:07:11.000Z</time>
      </trkpt>
      <trkpt lat="43.75446" lon="6.31913">
        <ele>729.79998779297</ele>
        <time>2017-05-24T08:07:34.000Z</time>
      </trkpt>
      <trkpt lat="43.75445" lon="6.31911">
        <ele>730.20001220703</ele>
        <time>2017-05-24T08:07:35.000Z</time>
      </trkpt>
      <trkpt lat="43.7544" lon="6.31905">
        <ele>731.20001220703</ele>
        <time>2017-05-24T08:07:46.000Z</time>
      </trkpt>
      <trkpt lat="43.75438" lon="6.31903">
        <ele>731.59997558594</ele>
        <time>2017-05-24T08:07:48.000Z</time>
      </trkpt>
      <trkpt lat="43.75437" lon="6.31901">
        <ele>731.79998779297</ele>
        <time>2017-05-24T08:07:49.000Z</time>
      </trkpt>
      <trkpt lat="43.75429" lon="6.31892">
        <ele>733.59997558594</ele>
        <time>2017-05-24T08:07:58.000Z</time>
      </trkpt>
      <trkpt lat="43.75425" lon="6.31888">
        <ele>734.20001220703</ele>
        <time>2017-05-24T08:08:02.000Z</time>
      </trkpt>
      <trkpt lat="43.75423" lon="6.31886">
        <ele>734.59997558594</ele>
        <time>2017-05-24T08:08:04.000Z</time>
      </trkpt>
      <trkpt lat="43.75422" lon="6.31885">
        <ele>735</ele>
        <time>2017-05-24T08:08:06.000Z</time>
      </trkpt>
      <trkpt lat="43.75419" lon="6.31882">
        <ele>737</ele>
        <time>2017-05-24T08:08:08.000Z</time>
      </trkpt>
      <trkpt lat="43.75417" lon="6.3188">
        <ele>739.79998779297</ele>
        <time>2017-05-24T08:08:10.000Z</time>
      </trkpt>
      <trkpt lat="43.75415" lon="6.31878">
        <ele>742.40002441406</ele>
        <time>2017-05-24T08:08:12.000Z</time>
      </trkpt>
      <trkpt lat="43.75413" lon="6.31875">
        <ele>745.20001220703</ele>
        <time>2017-05-24T08:08:14.000Z</time>
      </trkpt>
      <trkpt lat="43.75411" lon="6.31873">
        <ele>748</ele>
        <time>2017-05-24T08:08:16.000Z</time>
      </trkpt>
      <trkpt lat="43.75409" lon="6.3187">
        <ele>750.59997558594</ele>
        <time>2017-05-24T08:08:18.000Z</time>
      </trkpt>
      <trkpt lat="43.75407" lon="6.31868">
        <ele>753.79998779297</ele>
        <time>2017-05-24T08:08:20.000Z</time>
      </trkpt>
      <trkpt lat="43.75405" lon="6.31864">
        <ele>757.20001220703</ele>
        <time>2017-05-24T08:08:22.000Z</time>
      </trkpt>
      <trkpt lat="43.75402" lon="6.31861">
        <ele>760.20001220703</ele>
        <time>2017-05-24T08:08:24.000Z</time>
      </trkpt>
      <trkpt lat="43.754" lon="6.31857">
        <ele>763.40002441406</ele>
        <time>2017-05-24T08:08:26.000Z</time>
      </trkpt>
      <trkpt lat="43.75398" lon="6.31853">
        <ele>762.40002441406</ele>
        <time>2017-05-24T08:08:28.000Z</time>
      </trkpt>
      <trkpt lat="43.75396" lon="6.3185">
        <ele>760.20001220703</ele>
        <time>2017-05-24T08:08:30.000Z</time>
      </trkpt>
      <trkpt lat="43.75393" lon="6.31845">
        <ele>758</ele>
        <time>2017-05-24T08:08:32.000Z</time>
      </trkpt>
      <trkpt lat="43.7539" lon="6.3184">
        <ele>755.79998779297</ele>
        <time>2017-05-24T08:08:34.000Z</time>
      </trkpt>
      <trkpt lat="43.75388" lon="6.31835">
        <ele>753.40002441406</ele>
        <time>2017-05-24T08:08:36.000Z</time>
      </trkpt>
      <trkpt lat="43.75386" lon="6.31831">
        <ele>750.79998779297</ele>
        <time>2017-05-24T08:08:38.000Z</time>
      </trkpt>
      <trkpt lat="43.75383" lon="6.31826">
        <ele>753.79998779297</ele>
        <time>2017-05-24T08:08:40.000Z</time>
      </trkpt>
      <trkpt lat="43.75381" lon="6.31821">
        <ele>767.59997558594</ele>
        <time>2017-05-24T08:08:42.000Z</time>
      </trkpt>
      <trkpt lat="43.75384" lon="6.31784">
        <ele>751.79998779297</ele>
        <time>2017-05-24T08:08:54.000Z</time>
      </trkpt>
      <trkpt lat="43.75385" lon="6.31784">
        <ele>749.79998779297</ele>
        <time>2017-05-24T08:11:02.000Z</time>
      </trkpt>
      <trkpt lat="43.75387" lon="6.31783">
        <ele>748.20001220703</ele>
        <time>2017-05-24T08:11:03.000Z</time>
      </trkpt>
      <trkpt lat="43.75388" lon="6.31783">
        <ele>746.59997558594</ele>
        <time>2017-05-24T08:11:09.000Z</time>
      </trkpt>
      <trkpt lat="43.75389" lon="6.31783">
        <ele>745.40002441406</ele>
        <time>2017-05-24T08:11:20.000Z</time>
      </trkpt>
      <trkpt lat="43.75391" lon="6.31783">
        <ele>744.40002441406</ele>
        <time>2017-05-24T08:11:21.000Z</time>
      </trkpt>
      <trkpt lat="43.75391" lon="6.31783">
        <ele>744.20001220703</ele>
        <time>2017-05-24T08:11:23.000Z</time>
      </trkpt>
      <trkpt lat="43.75394" lon="6.31782">
        <ele>742.20001220703</ele>
        <time>2017-05-24T08:11:25.000Z</time>
      </trkpt>
      <trkpt lat="43.754" lon="6.31782">
        <ele>734.79998779297</ele>
        <time>2017-05-24T08:11:29.000Z</time>
      </trkpt>
      <trkpt lat="43.75411" lon="6.31782">
        <ele>725.20001220703</ele>
        <time>2017-05-24T08:11:31.000Z</time>
      </trkpt>
      <trkpt lat="43.75426" lon="6.31782">
        <ele>719</ele>
        <time>2017-05-24T08:11:34.000Z</time>
      </trkpt>
      <trkpt lat="43.75438" lon="6.31781">
        <ele>714.59997558594</ele>
        <time>2017-05-24T08:11:36.000Z</time>
      </trkpt>
      <trkpt lat="43.75448" lon="6.31781">
        <ele>713.79998779297</ele>
        <time>2017-05-24T08:11:38.000Z</time>
      </trkpt>
      <trkpt lat="43.75454" lon="6.31781">
        <ele>714.59997558594</ele>
        <time>2017-05-24T08:11:40.000Z</time>
      </trkpt>
      <trkpt lat="43.75458" lon="6.31781">
        <ele>715.59997558594</ele>
        <time>2017-05-24T08:11:42.000Z</time>
      </trkpt>
      <trkpt lat="43.75452" lon="6.31774">
        <ele>713.20001220703</ele>
        <time>2017-05-24T08:13:31.000Z</time>
      </trkpt>
      <trkpt lat="43.75448" lon="6.31769">
        <ele>713.20001220703</ele>
        <time>2017-05-24T08:13:32.000Z</time>
      </trkpt>
      <trkpt lat="43.75436" lon="6.31739">
        <ele>719.20001220703</ele>
        <time>2017-05-24T08:14:09.000Z</time>
      </trkpt>
      <trkpt lat="43.75443" lon="6.31742">
        <ele>720.40002441406</ele>
        <time>2017-05-24T08:14:20.000Z</time>
      </trkpt>
      <trkpt lat="43.75446" lon="6.31744">
        <ele>720.79998779297</ele>
        <time>2017-05-24T08:14:23.000Z</time>
      </trkpt>
      <trkpt lat="43.75458" lon="6.3175">
        <ele>723.20001220703</ele>
        <time>2017-05-24T08:14:25.000Z</time>
      </trkpt>
      <trkpt lat="43.75476" lon="6.31761">
        <ele>728</ele>
        <time>2017-05-24T08:14:32.000Z</time>
      </trkpt>
      <trkpt lat="43.75484" lon="6.31768">
        <ele>729</ele>
        <time>2017-05-24T08:14:42.000Z</time>
      </trkpt>
      <trkpt lat="43.75485" lon="6.31768">
        <ele>729.40002441406</ele>
        <time>2017-05-24T08:15:18.000Z</time>
      </trkpt>
      <trkpt lat="43.75486" lon="6.31769">
        <ele>729.79998779297</ele>
        <time>2017-05-24T08:15:19.000Z</time>
      </trkpt>
      <trkpt lat="43.75505" lon="6.31777">
        <ele>737.20001220703</ele>
        <time>2017-05-24T08:15:28.000Z</time>
      </trkpt>
      <trkpt lat="43.7551" lon="6.31779">
        <ele>738.40002441406</ele>
        <time>2017-05-24T08:15:29.000Z</time>
      </trkpt>
      <trkpt lat="43.7551" lon="6.31779">
        <ele>738.59997558594</ele>
        <time>2017-05-24T08:16:01.000Z</time>
      </trkpt>
      <trkpt lat="43.7551" lon="6.31779">
        <ele>738.59997558594</ele>
        <time>2017-05-24T08:16:02.000Z</time>
      </trkpt>
      <trkpt lat="43.75511" lon="6.3178">
        <ele>738.79998779297</ele>
        <time>2017-05-24T08:16:07.000Z</time>
      </trkpt>
      <trkpt lat="43.75528" lon="6.31786">
        <ele>741.59997558594</ele>
        <time>2017-05-24T08:16:31.000Z</time>
      </trkpt>
      <trkpt lat="43.75528" lon="6.31777">
        <ele>741</ele>
        <time>2017-05-24T08:19:01.000Z</time>
      </trkpt>
      <trkpt lat="43.75527" lon="6.31769">
        <ele>741.59997558594</ele>
        <time>2017-05-24T08:19:02.000Z</time>
      </trkpt>
      <trkpt lat="43.75517" lon="6.3171">
        <ele>738.20001220703</ele>
        <time>2017-05-24T08:19:07.000Z</time>
      </trkpt>
      <trkpt lat="43.75511" lon="6.31679">
        <ele>745.79998779297</ele>
        <time>2017-05-24T08:19:10.000Z</time>
      </trkpt>
      <trkpt lat="43.75508" lon="6.31664">
        <ele>751.40002441406</ele>
        <time>2017-05-24T08:19:12.000Z</time>
      </trkpt>
      <trkpt lat="43.75504" lon="6.31651">
        <ele>743</ele>
        <time>2017-05-24T08:19:17.000Z</time>
      </trkpt>
      <trkpt lat="43.755" lon="6.31642">
        <ele>735.20001220703</ele>
        <time>2017-05-24T08:19:19.000Z</time>
      </trkpt>
      <trkpt lat="43.75498" lon="6.31636">
        <ele>729.79998779297</ele>
        <time>2017-05-24T08:19:21.000Z</time>
      </trkpt>
      <trkpt lat="43.75496" lon="6.31631">
        <ele>729</ele>
        <time>2017-05-24T08:19:22.000Z</time>
      </trkpt>
      <trkpt lat="43.75495" lon="6.31628">
        <ele>730.20001220703</ele>
        <time>2017-05-24T08:21:34.000Z</time>
      </trkpt>
      <trkpt lat="43.75494" lon="6.31625">
        <ele>730.79998779297</ele>
        <time>2017-05-24T08:21:35.000Z</time>
      </trkpt>
      <trkpt lat="43.75493" lon="6.31621">
        <ele>732</ele>
        <time>2017-05-24T08:21:36.000Z</time>
      </trkpt>
      <trkpt lat="43.75496" lon="6.31625">
        <ele>729</ele>
        <time>2017-05-24T08:22:27.000Z</time>
      </trkpt>
      <trkpt lat="43.75499" lon="6.31628">
        <ele>727</ele>
        <time>2017-05-24T08:22:28.000Z</time>
      </trkpt>
      <trkpt lat="43.75499" lon="6.31628">
        <ele>726.59997558594</ele>
        <time>2017-05-24T08:22:34.000Z</time>
      </trkpt>
      <trkpt lat="43.755" lon="6.31633">
        <ele>725.59997558594</ele>
        <time>2017-05-24T08:22:36.000Z</time>
      </trkpt>
      <trkpt lat="43.755" lon="6.31637">
        <ele>729.59997558594</ele>
        <time>2017-05-24T08:22:39.000Z</time>
      </trkpt>
      <trkpt lat="43.75505" lon="6.31662">
        <ele>751.59997558594</ele>
        <time>2017-05-24T08:23:09.000Z</time>
      </trkpt>
      <trkpt lat="43.75497" lon="6.31659">
        <ele>750.79998779297</ele>
        <time>2017-05-24T08:34:26.000Z</time>
      </trkpt>
      <trkpt lat="43.75497" lon="6.31659">
        <ele>750.79998779297</ele>
        <time>2017-05-24T08:36:56.000Z</time>
      </trkpt>
      <trkpt lat="43.75481" lon="6.31702">
        <ele>749.59997558594</ele>
        <time>2017-05-24T08:40:14.000Z</time>
      </trkpt>
      <trkpt lat="43.75481" lon="6.31702">
        <ele>749.59997558594</ele>
        <time>2017-05-24T08:40:15.000Z</time>
      </trkpt>
      <trkpt lat="43.75481" lon="6.31726">
        <ele>743.40002441406</ele>
        <time>2017-05-24T08:40:26.000Z</time>
      </trkpt>
      <trkpt lat="43.7548" lon="6.31707">
        <ele>748.40002441406</ele>
        <time>2017-05-24T08:41:11.000Z</time>
      </trkpt>
      <trkpt lat="43.75479" lon="6.31708">
        <ele>748</ele>
        <time>2017-05-24T08:41:14.000Z</time>
      </trkpt>
      <trkpt lat="43.7547" lon="6.31711">
        <ele>742</ele>
        <time>2017-05-24T08:41:16.000Z</time>
      </trkpt>
      <trkpt lat="43.75463" lon="6.31714">
        <ele>738</ele>
        <time>2017-05-24T08:41:18.000Z</time>
      </trkpt>
      <trkpt lat="43.75455" lon="6.31718">
        <ele>733.59997558594</ele>
        <time>2017-05-24T08:41:21.000Z</time>
      </trkpt>
      <trkpt lat="43.75449" lon="6.31721">
        <ele>729.59997558594</ele>
        <time>2017-05-24T08:41:23.000Z</time>
      </trkpt>
      <trkpt lat="43.75446" lon="6.31697">
        <ele>733</ele>
        <time>2017-05-24T08:41:34.000Z</time>
      </trkpt>
      <trkpt lat="43.75439" lon="6.31674">
        <ele>726.40002441406</ele>
        <time>2017-05-24T08:41:42.000Z</time>
      </trkpt>
      <trkpt lat="43.75449" lon="6.31712">
        <ele>732</ele>
        <time>2017-05-24T08:42:12.000Z</time>
      </trkpt>
      <trkpt lat="43.75457" lon="6.31734">
        <ele>728.40002441406</ele>
        <time>2017-05-24T08:42:30.000Z</time>
      </trkpt>
      <trkpt lat="43.75457" lon="6.31744">
        <ele>725.20001220703</ele>
        <time>2017-05-24T08:42:32.000Z</time>
      </trkpt>
      <trkpt lat="43.75467" lon="6.3173">
        <ele>735.20001220703</ele>
        <time>2017-05-24T08:42:52.000Z</time>
      </trkpt>
      <trkpt lat="43.75448" lon="6.31751">
        <ele>719</ele>
        <time>2017-05-24T08:43:09.000Z</time>
      </trkpt>
      <trkpt lat="43.75447" lon="6.31751">
        <ele>718.59997558594</ele>
        <time>2017-05-24T08:44:23.000Z</time>
      </trkpt>
      <trkpt lat="43.75446" lon="6.31751">
        <ele>718.20001220703</ele>
        <time>2017-05-24T08:44:24.000Z</time>
      </trkpt>
      <trkpt lat="43.75436" lon="6.31776">
        <ele>714.40002441406</ele>
        <time>2017-05-24T08:44:43.000Z</time>
      </trkpt>
      <trkpt lat="43.75433" lon="6.31782">
        <ele>715</ele>
        <time>2017-05-24T08:45:05.000Z</time>
      </trkpt>
      <trkpt lat="43.75431" lon="6.31786">
        <ele>718.40002441406</ele>
        <time>2017-05-24T08:45:06.000Z</time>
      </trkpt>
      <trkpt lat="43.75427" lon="6.31798">
        <ele>728.59997558594</ele>
        <time>2017-05-24T08:45:24.000Z</time>
      </trkpt>
      <trkpt lat="43.75425" lon="6.31799">
        <ele>729.79998779297</ele>
        <time>2017-05-24T08:46:41.000Z</time>
      </trkpt>
      <trkpt lat="43.75424" lon="6.31799">
        <ele>730.79998779297</ele>
        <time>2017-05-24T08:46:42.000Z</time>
      </trkpt>
      <trkpt lat="43.75415" lon="6.3181">
        <ele>746.79998779297</ele>
        <time>2017-05-24T08:47:03.000Z</time>
      </trkpt>
      <trkpt lat="43.75424" lon="6.3181">
        <ele>735.20001220703</ele>
        <time>2017-05-24T08:47:18.000Z</time>
      </trkpt>
      <trkpt lat="43.75425" lon="6.31809">
        <ele>734.79998779297</ele>
        <time>2017-05-24T08:49:12.000Z</time>
      </trkpt>
      <trkpt lat="43.75426" lon="6.31809">
        <ele>734.20001220703</ele>
        <time>2017-05-24T08:49:13.000Z</time>
      </trkpt>
      <trkpt lat="43.75428" lon="6.31808">
        <ele>733.20001220703</ele>
        <time>2017-05-24T08:49:17.000Z</time>
      </trkpt>
      <trkpt lat="43.75436" lon="6.31807">
        <ele>728.20001220703</ele>
        <time>2017-05-24T08:49:19.000Z</time>
      </trkpt>
      <trkpt lat="43.75442" lon="6.31806">
        <ele>723.59997558594</ele>
        <time>2017-05-24T08:49:21.000Z</time>
      </trkpt>
      <trkpt lat="43.75447" lon="6.31805">
        <ele>720.20001220703</ele>
        <time>2017-05-24T08:49:23.000Z</time>
      </trkpt>
      <trkpt lat="43.75452" lon="6.31804">
        <ele>717</ele>
        <time>2017-05-24T08:49:25.000Z</time>
      </trkpt>
      <trkpt lat="43.7546" lon="6.31803">
        <ele>719</ele>
        <time>2017-05-24T08:49:30.000Z</time>
      </trkpt>
      <trkpt lat="43.75461" lon="6.31803">
        <ele>719</ele>
        <time>2017-05-24T08:49:32.000Z</time>
      </trkpt>
      <trkpt lat="43.75462" lon="6.31803">
        <ele>719.59997558594</ele>
        <time>2017-05-24T08:49:52.000Z</time>
      </trkpt>
      <trkpt lat="43.75463" lon="6.31803">
        <ele>719.79998779297</ele>
        <time>2017-05-24T08:49:53.000Z</time>
      </trkpt>
      <trkpt lat="43.75464" lon="6.31803">
        <ele>720</ele>
        <time>2017-05-24T08:49:55.000Z</time>
      </trkpt>
      <trkpt lat="43.75468" lon="6.31804">
        <ele>721.40002441406</ele>
        <time>2017-05-24T08:49:57.000Z</time>
      </trkpt>
      <trkpt lat="43.75471" lon="6.31805">
        <ele>723</ele>
        <time>2017-05-24T08:50:00.000Z</time>
      </trkpt>
      <trkpt lat="43.75474" lon="6.31805">
        <ele>724</ele>
        <time>2017-05-24T08:50:02.000Z</time>
      </trkpt>
      <trkpt lat="43.75483" lon="6.31811">
        <ele>729</ele>
        <time>2017-05-24T08:50:23.000Z</time>
      </trkpt>
      <trkpt lat="43.75484" lon="6.31813">
        <ele>730</ele>
        <time>2017-05-24T08:50:35.000Z</time>
      </trkpt>
      <trkpt lat="43.75484" lon="6.31815">
        <ele>730.79998779297</ele>
        <time>2017-05-24T08:50:36.000Z</time>
      </trkpt>
      <trkpt lat="43.75488" lon="6.31822">
        <ele>734.20001220703</ele>
        <time>2017-05-24T08:50:47.000Z</time>
      </trkpt>
      <trkpt lat="43.75491" lon="6.31836">
        <ele>742.20001220703</ele>
        <time>2017-05-24T08:50:49.000Z</time>
      </trkpt>
      <trkpt lat="43.75492" lon="6.31841">
        <ele>745.59997558594</ele>
        <time>2017-05-24T08:50:50.000Z</time>
      </trkpt>
      <trkpt lat="43.75493" lon="6.31846">
        <ele>748.20001220703</ele>
        <time>2017-05-24T08:50:52.000Z</time>
      </trkpt>
      <trkpt lat="43.75494" lon="6.31849">
        <ele>749.79998779297</ele>
        <time>2017-05-24T08:51:55.000Z</time>
      </trkpt>
      <trkpt lat="43.75495" lon="6.31852">
        <ele>751.20001220703</ele>
        <time>2017-05-24T08:51:56.000Z</time>
      </trkpt>
      <trkpt lat="43.75496" lon="6.31858">
        <ele>753.20001220703</ele>
        <time>2017-05-24T08:51:59.000Z</time>
      </trkpt>
      <trkpt lat="43.75496" lon="6.31861">
        <ele>753.40002441406</ele>
        <time>2017-05-24T08:52:21.000Z</time>
      </trkpt>
      <trkpt lat="43.75496" lon="6.31863">
        <ele>753.40002441406</ele>
        <time>2017-05-24T08:52:22.000Z</time>
      </trkpt>
      <trkpt lat="43.75497" lon="6.31869">
        <ele>754</ele>
        <time>2017-05-24T08:52:24.000Z</time>
      </trkpt>
      <trkpt lat="43.755" lon="6.31888">
        <ele>758.40002441406</ele>
        <time>2017-05-24T08:52:27.000Z</time>
      </trkpt>
      <trkpt lat="43.75505" lon="6.31908">
        <ele>765.20001220703</ele>
        <time>2017-05-24T08:52:30.000Z</time>
      </trkpt>
      <trkpt lat="43.75508" lon="6.31917">
        <ele>767</ele>
        <time>2017-05-24T08:52:37.000Z</time>
      </trkpt>
      <trkpt lat="43.7551" lon="6.31933">
        <ele>766.79998779297</ele>
        <time>2017-05-24T08:52:51.000Z</time>
      </trkpt>
      <trkpt lat="43.75516" lon="6.31948">
        <ele>770.79998779297</ele>
        <time>2017-05-24T08:53:04.000Z</time>
      </trkpt>
      <trkpt lat="43.75518" lon="6.31952">
        <ele>773</ele>
        <time>2017-05-24T08:53:05.000Z</time>
      </trkpt>
      <trkpt lat="43.7552" lon="6.31956">
        <ele>775</ele>
        <time>2017-05-24T08:53:08.000Z</time>
      </trkpt>
      <trkpt lat="43.75521" lon="6.31957">
        <ele>776.20001220703</ele>
        <time>2017-05-24T08:53:24.000Z</time>
      </trkpt>
      <trkpt lat="43.75523" lon="6.31958">
        <ele>777.59997558594</ele>
        <time>2017-05-24T08:53:25.000Z</time>
      </trkpt>
      <trkpt lat="43.75523" lon="6.31958">
        <ele>777.79998779297</ele>
        <time>2017-05-24T08:53:26.000Z</time>
      </trkpt>
      <trkpt lat="43.75523" lon="6.31957">
        <ele>777.79998779297</ele>
        <time>2017-05-24T08:54:20.000Z</time>
      </trkpt>
      <trkpt lat="43.75523" lon="6.31957">
        <ele>777.59997558594</ele>
        <time>2017-05-24T08:54:21.000Z</time>
      </trkpt>
      <trkpt lat="43.75523" lon="6.31955">
        <ele>777</ele>
        <time>2017-05-24T08:54:24.000Z</time>
      </trkpt>
      <trkpt lat="43.75523" lon="6.31953">
        <ele>777.40002441406</ele>
        <time>2017-05-24T08:54:28.000Z</time>
      </trkpt>
      <trkpt lat="43.75523" lon="6.31952">
        <ele>777.59997558594</ele>
        <time>2017-05-24T08:54:29.000Z</time>
      </trkpt>
      <trkpt lat="43.7552" lon="6.31932">
        <ele>778.79998779297</ele>
        <time>2017-05-24T08:54:40.000Z</time>
      </trkpt>
      <trkpt lat="43.75521" lon="6.31931">
        <ele>779.79998779297</ele>
        <time>2017-05-24T08:56:33.000Z</time>
      </trkpt>
      <trkpt lat="43.75522" lon="6.3193">
        <ele>780.79998779297</ele>
        <time>2017-05-24T08:56:34.000Z</time>
      </trkpt>
      <trkpt lat="43.75529" lon="6.31923">
        <ele>783.59997558594</ele>
        <time>2017-05-24T08:56:47.000Z</time>
      </trkpt>
      <trkpt lat="43.75529" lon="6.31922">
        <ele>783.40002441406</ele>
        <time>2017-05-24T08:57:10.000Z</time>
      </trkpt>
      <trkpt lat="43.75529" lon="6.31922">
        <ele>783.40002441406</ele>
        <time>2017-05-24T08:57:11.000Z</time>
      </trkpt>
      <trkpt lat="43.75531" lon="6.31919">
        <ele>783</ele>
        <time>2017-05-24T08:57:17.000Z</time>
      </trkpt>
      <trkpt lat="43.75533" lon="6.31911">
        <ele>780.79998779297</ele>
        <time>2017-05-24T08:57:24.000Z</time>
      </trkpt>
      <trkpt lat="43.75532" lon="6.31905">
        <ele>778.40002441406</ele>
        <time>2017-05-24T08:58:54.000Z</time>
      </trkpt>
      <trkpt lat="43.75531" lon="6.31901">
        <ele>776.59997558594</ele>
        <time>2017-05-24T08:58:55.000Z</time>
      </trkpt>
      <trkpt lat="43.75529" lon="6.31892">
        <ele>773.40002441406</ele>
        <time>2017-05-24T08:58:59.000Z</time>
      </trkpt>
      <trkpt lat="43.75526" lon="6.31892">
        <ele>771.79998779297</ele>
        <time>2017-05-24T09:01:00.000Z</time>
      </trkpt>
      <trkpt lat="43.75523" lon="6.31892">
        <ele>770.59997558594</ele>
        <time>2017-05-24T09:01:01.000Z</time>
      </trkpt>
      <trkpt lat="43.75518" lon="6.31902">
        <ele>771</ele>
        <time>2017-05-24T09:01:06.000Z</time>
      </trkpt>
      <trkpt lat="43.7552" lon="6.31929">
        <ele>778.40002441406</ele>
        <time>2017-05-24T09:01:16.000Z</time>
      </trkpt>
      <trkpt lat="43.7552" lon="6.31934">
        <ele>778.59997558594</ele>
        <time>2017-05-24T09:03:19.000Z</time>
      </trkpt>
      <trkpt lat="43.75521" lon="6.31937">
        <ele>778.59997558594</ele>
        <time>2017-05-24T09:03:20.000Z</time>
      </trkpt>
      <trkpt lat="43.75522" lon="6.31944">
        <ele>778.59997558594</ele>
        <time>2017-05-24T09:03:24.000Z</time>
      </trkpt>
      <trkpt lat="43.75523" lon="6.31954">
        <ele>777.20001220703</ele>
        <time>2017-05-24T09:03:37.000Z</time>
      </trkpt>
      <trkpt lat="43.75523" lon="6.3196">
        <ele>778.40002441406</ele>
        <time>2017-05-24T09:03:38.000Z</time>
      </trkpt>
      <trkpt lat="43.75526" lon="6.31978">
        <ele>779.40002441406</ele>
        <time>2017-05-24T09:03:46.000Z</time>
      </trkpt>
      <trkpt lat="43.75526" lon="6.31979">
        <ele>778.79998779297</ele>
        <time>2017-05-24T09:04:32.000Z</time>
      </trkpt>
      <trkpt lat="43.75526" lon="6.31981">
        <ele>778.40002441406</ele>
        <time>2017-05-24T09:04:33.000Z</time>
      </trkpt>
      <trkpt lat="43.75523" lon="6.31991">
        <ele>772.40002441406</ele>
        <time>2017-05-24T09:04:44.000Z</time>
      </trkpt>
      <trkpt lat="43.75513" lon="6.31997">
        <ele>762</ele>
        <time>2017-05-24T09:04:50.000Z</time>
      </trkpt>
      <trkpt lat="43.75503" lon="6.32003">
        <ele>750.40002441406</ele>
        <time>2017-05-24T09:04:58.000Z</time>
      </trkpt>
      <trkpt lat="43.75468" lon="6.32024">
        <ele>716</ele>
        <time>2017-05-24T09:05:00.000Z</time>
      </trkpt>
      <trkpt lat="43.75452" lon="6.32034">
        <ele>704.40002441406</ele>
        <time>2017-05-24T09:05:02.000Z</time>
      </trkpt>
      <trkpt lat="43.75435" lon="6.32043">
        <ele>699.79998779297</ele>
        <time>2017-05-24T09:05:06.000Z</time>
      </trkpt>
      <trkpt lat="43.75426" lon="6.32048">
        <ele>697</ele>
        <time>2017-05-24T09:05:10.000Z</time>
      </trkpt>
      <trkpt lat="43.75421" lon="6.32051">
        <ele>695.40002441406</ele>
        <time>2017-05-24T09:05:12.000Z</time>
      </trkpt>
      <trkpt lat="43.75414" lon="6.32056">
        <ele>692.40002441406</ele>
        <time>2017-05-24T09:05:15.000Z</time>
      </trkpt>
      <trkpt lat="43.75407" lon="6.32059">
        <ele>690.20001220703</ele>
        <time>2017-05-24T09:05:22.000Z</time>
      </trkpt>
      <trkpt lat="43.75405" lon="6.3206">
        <ele>689.40002441406</ele>
        <time>2017-05-24T09:05:28.000Z</time>
      </trkpt>
      <trkpt lat="43.75397" lon="6.32064">
        <ele>687.59997558594</ele>
        <time>2017-05-24T09:05:32.000Z</time>
      </trkpt>
      <trkpt lat="43.75392" lon="6.32067">
        <ele>681.40002441406</ele>
        <time>2017-05-24T09:05:33.000Z</time>
      </trkpt>
      <trkpt lat="43.75377" lon="6.32073">
        <ele>672</ele>
        <time>2017-05-24T09:05:41.000Z</time>
      </trkpt>
      <trkpt lat="43.75377" lon="6.32073">
        <ele>671.79998779297</ele>
        <time>2017-05-24T09:05:55.000Z</time>
      </trkpt>
      <trkpt lat="43.75376" lon="6.32074">
        <ele>671.79998779297</ele>
        <time>2017-05-24T09:05:56.000Z</time>
      </trkpt>
      <trkpt lat="43.75373" lon="6.32076">
        <ele>672</ele>
        <time>2017-05-24T09:06:04.000Z</time>
      </trkpt>
      <trkpt lat="43.75378" lon="6.32076">
        <ele>673.79998779297</ele>
        <time>2017-05-24T09:07:21.000Z</time>
      </trkpt>
      <trkpt lat="43.75383" lon="6.32075">
        <ele>675.40002441406</ele>
        <time>2017-05-24T09:07:22.000Z</time>
      </trkpt>
      <trkpt lat="43.75387" lon="6.32075">
        <ele>676.79998779297</ele>
        <time>2017-05-24T09:07:24.000Z</time>
      </trkpt>
      <trkpt lat="43.75393" lon="6.32075">
        <ele>678.79998779297</ele>
        <time>2017-05-24T09:07:29.000Z</time>
      </trkpt>
      <trkpt lat="43.75397" lon="6.32075">
        <ele>683.20001220703</ele>
        <time>2017-05-24T09:07:30.000Z</time>
      </trkpt>
      <trkpt lat="43.75404" lon="6.32075">
        <ele>683.59997558594</ele>
        <time>2017-05-24T09:07:59.000Z</time>
      </trkpt>
      <trkpt lat="43.75409" lon="6.32075">
        <ele>683.79998779297</ele>
        <time>2017-05-24T09:08:00.000Z</time>
      </trkpt>
      <trkpt lat="43.75414" lon="6.32075">
        <ele>684</ele>
        <time>2017-05-24T09:08:02.000Z</time>
      </trkpt>
      <trkpt lat="43.7542" lon="6.32074">
        <ele>684.40002441406</ele>
        <time>2017-05-24T09:08:08.000Z</time>
      </trkpt>
      <trkpt lat="43.75425" lon="6.32074">
        <ele>685.40002441406</ele>
        <time>2017-05-24T09:08:09.000Z</time>
      </trkpt>
      <trkpt lat="43.7544" lon="6.32069">
        <ele>691</ele>
        <time>2017-05-24T09:08:15.000Z</time>
      </trkpt>
      <trkpt lat="43.75456" lon="6.32064">
        <ele>699.40002441406</ele>
        <time>2017-05-24T09:08:21.000Z</time>
      </trkpt>
      <trkpt lat="43.75464" lon="6.32061">
        <ele>707</ele>
        <time>2017-05-24T09:08:29.000Z</time>
      </trkpt>
      <trkpt lat="43.75463" lon="6.32062">
        <ele>706.59997558594</ele>
        <time>2017-05-24T09:09:37.000Z</time>
      </trkpt>
      <trkpt lat="43.75463" lon="6.32062">
        <ele>706.40002441406</ele>
        <time>2017-05-24T09:09:38.000Z</time>
      </trkpt>
      <trkpt lat="43.7546" lon="6.32063">
        <ele>703.20001220703</ele>
        <time>2017-05-24T09:09:44.000Z</time>
      </trkpt>
      <trkpt lat="43.75362" lon="6.3211">
        <ele>686</ele>
        <time>2017-05-24T09:09:49.000Z</time>
      </trkpt>
      <trkpt lat="43.75341" lon="6.32122">
        <ele>701.59997558594</ele>
        <time>2017-05-24T09:09:57.000Z</time>
      </trkpt>
      <trkpt lat="43.75333" lon="6.32127">
        <ele>724.79998779297</ele>
        <time>2017-05-24T09:10:00.000Z</time>
      </trkpt>
      <trkpt lat="43.75327" lon="6.32131">
        <ele>725.20001220703</ele>
        <time>2017-05-24T09:10:01.000Z</time>
      </trkpt>
      <trkpt lat="43.75323" lon="6.32134">
        <ele>725.20001220703</ele>
        <time>2017-05-24T09:10:03.000Z</time>
      </trkpt>
      <trkpt lat="43.75318" lon="6.32136">
        <ele>725.20001220703</ele>
        <time>2017-05-24T09:10:21.000Z</time>
      </trkpt>
      <trkpt lat="43.75314" lon="6.32138">
        <ele>724.59997558594</ele>
        <time>2017-05-24T09:10:22.000Z</time>
      </trkpt>
      <trkpt lat="43.75308" lon="6.32144">
        <ele>719.59997558594</ele>
        <time>2017-05-24T09:10:28.000Z</time>
      </trkpt>
      <trkpt lat="43.75304" lon="6.32139">
        <ele>725.79998779297</ele>
        <time>2017-05-24T09:14:33.000Z</time>
      </trkpt>
      <trkpt lat="43.75301" lon="6.32136">
        <ele>730.79998779297</ele>
        <time>2017-05-24T09:14:34.000Z</time>
      </trkpt>
      <trkpt lat="43.75283" lon="6.32124">
        <ele>744.20001220703</ele>
        <time>2017-05-24T09:14:37.000Z</time>
      </trkpt>
      <trkpt lat="43.7527" lon="6.32117">
        <ele>753</ele>
        <time>2017-05-24T09:14:43.000Z</time>
      </trkpt>
      <trkpt lat="43.7527" lon="6.32116">
        <ele>753.59997558594</ele>
        <time>2017-05-24T09:15:49.000Z</time>
      </trkpt>
      <trkpt lat="43.7527" lon="6.32116">
        <ele>754</ele>
        <time>2017-05-24T09:15:50.000Z</time>
      </trkpt>
      <trkpt lat="43.7527" lon="6.32113">
        <ele>756.40002441406</ele>
        <time>2017-05-24T09:15:54.000Z</time>
      </trkpt>
      <trkpt lat="43.75266" lon="6.32108">
        <ele>761.20001220703</ele>
        <time>2017-05-24T09:16:24.000Z</time>
      </trkpt>
      <trkpt lat="43.75264" lon="6.32104">
        <ele>764</ele>
        <time>2017-05-24T09:16:25.000Z</time>
      </trkpt>
      <trkpt lat="43.75253" lon="6.32096">
        <ele>771.79998779297</ele>
        <time>2017-05-24T09:16:31.000Z</time>
      </trkpt>
      <trkpt lat="43.75253" lon="6.32096">
        <ele>772</ele>
        <time>2017-05-24T09:17:45.000Z</time>
      </trkpt>
      <trkpt lat="43.75253" lon="6.32096">
        <ele>772</ele>
        <time>2017-05-24T09:17:46.000Z</time>
      </trkpt>
      <trkpt lat="43.75252" lon="6.32096">
        <ele>772</ele>
        <time>2017-05-24T09:17:49.000Z</time>
      </trkpt>
      <trkpt lat="43.75249" lon="6.32098">
        <ele>772.20001220703</ele>
        <time>2017-05-24T09:19:33.000Z</time>
      </trkpt>
      <trkpt lat="43.75247" lon="6.321">
        <ele>772.40002441406</ele>
        <time>2017-05-24T09:19:34.000Z</time>
      </trkpt>
      <trkpt lat="43.75246" lon="6.321">
        <ele>772.40002441406</ele>
        <time>2017-05-24T09:19:36.000Z</time>
      </trkpt>
      <trkpt lat="43.75246" lon="6.321">
        <ele>772.79998779297</ele>
        <time>2017-05-24T09:22:32.000Z</time>
      </trkpt>
      <trkpt lat="43.75245" lon="6.32099">
        <ele>773.20001220703</ele>
        <time>2017-05-24T09:22:33.000Z</time>
      </trkpt>
      <trkpt lat="43.75244" lon="6.32099">
        <ele>773.59997558594</ele>
        <time>2017-05-24T09:22:35.000Z</time>
      </trkpt>
      <trkpt lat="43.75234" lon="6.32096">
        <ele>779.20001220703</ele>
        <time>2017-05-24T09:22:37.000Z</time>
      </trkpt>
      <trkpt lat="43.75229" lon="6.32094">
        <ele>782</ele>
        <time>2017-05-24T09:22:39.000Z</time>
      </trkpt>
      <trkpt lat="43.75224" lon="6.32095">
        <ele>783.59997558594</ele>
        <time>2017-05-24T09:23:57.000Z</time>
      </trkpt>
      <trkpt lat="43.7522" lon="6.32097">
        <ele>784.79998779297</ele>
        <time>2017-05-24T09:23:58.000Z</time>
      </trkpt>
      <trkpt lat="43.75214" lon="6.321">
        <ele>786.59997558594</ele>
        <time>2017-05-24T09:24:07.000Z</time>
      </trkpt>
      <trkpt lat="43.75212" lon="6.32101">
        <ele>786.59997558594</ele>
        <time>2017-05-24T09:25:27.000Z</time>
      </trkpt>
      <trkpt lat="43.75211" lon="6.32102">
        <ele>786.79998779297</ele>
        <time>2017-05-24T09:25:28.000Z</time>
      </trkpt>
      <trkpt lat="43.75209" lon="6.32105">
        <ele>786.59997558594</ele>
        <time>2017-05-24T09:25:34.000Z</time>
      </trkpt>
      <trkpt lat="43.75211" lon="6.32112">
        <ele>783.20001220703</ele>
        <time>2017-05-24T09:31:47.000Z</time>
      </trkpt>
      <trkpt lat="43.75213" lon="6.32118">
        <ele>780.59997558594</ele>
        <time>2017-05-24T09:31:48.000Z</time>
      </trkpt>
      <trkpt lat="43.75216" lon="6.32155">
        <ele>785.40002441406</ele>
        <time>2017-05-24T09:32:04.000Z</time>
      </trkpt>
      <trkpt lat="43.75216" lon="6.32154">
        <ele>785</ele>
        <time>2017-05-24T09:33:14.000Z</time>
      </trkpt>
      <trkpt lat="43.75216" lon="6.32153">
        <ele>784.20001220703</ele>
        <time>2017-05-24T09:33:15.000Z</time>
      </trkpt>
      <trkpt lat="43.75222" lon="6.32132">
        <ele>773.79998779297</ele>
        <time>2017-05-24T09:33:30.000Z</time>
      </trkpt>
      <trkpt lat="43.75235" lon="6.32089">
        <ele>782.59997558594</ele>
        <time>2017-05-24T09:33:38.000Z</time>
      </trkpt>
      <trkpt lat="43.75238" lon="6.32082">
        <ele>785.20001220703</ele>
        <time>2017-05-24T09:33:44.000Z</time>
      </trkpt>
      <trkpt lat="43.75241" lon="6.32065">
        <ele>791.40002441406</ele>
        <time>2017-05-24T09:35:03.000Z</time>
      </trkpt>
      <trkpt lat="43.75243" lon="6.32059">
        <ele>793.40002441406</ele>
        <time>2017-05-24T09:35:04.000Z</time>
      </trkpt>
      <trkpt lat="43.75246" lon="6.32036">
        <ele>798.59997558594</ele>
        <time>2017-05-24T09:35:12.000Z</time>
      </trkpt>
      <trkpt lat="43.75245" lon="6.32032">
        <ele>800.40002441406</ele>
        <time>2017-05-24T09:35:32.000Z</time>
      </trkpt>
      <trkpt lat="43.75244" lon="6.32029">
        <ele>801.79998779297</ele>
        <time>2017-05-24T09:35:33.000Z</time>
      </trkpt>
      <trkpt lat="43.75236" lon="6.32001">
        <ele>811</ele>
        <time>2017-05-24T09:35:41.000Z</time>
      </trkpt>
      <trkpt lat="43.75227" lon="6.31978">
        <ele>815.40002441406</ele>
        <time>2017-05-24T09:36:01.000Z</time>
      </trkpt>
      <trkpt lat="43.75224" lon="6.31971">
        <ele>815.79998779297</ele>
        <time>2017-05-24T09:36:07.000Z</time>
      </trkpt>
      <trkpt lat="43.75219" lon="6.3197">
        <ele>816.79998779297</ele>
        <time>2017-05-24T09:36:35.000Z</time>
      </trkpt>
      <trkpt lat="43.75216" lon="6.3197">
        <ele>817.40002441406</ele>
        <time>2017-05-24T09:36:36.000Z</time>
      </trkpt>
      <trkpt lat="43.75199" lon="6.31976">
        <ele>820.40002441406</ele>
        <time>2017-05-24T09:36:45.000Z</time>
      </trkpt>
      <trkpt lat="43.75187" lon="6.31998">
        <ele>822</ele>
        <time>2017-05-24T09:37:04.000Z</time>
      </trkpt>
      <trkpt lat="43.75178" lon="6.32015">
        <ele>823.40002441406</ele>
        <time>2017-05-24T09:37:14.000Z</time>
      </trkpt>
      <trkpt lat="43.75155" lon="6.32021">
        <ele>830</ele>
        <time>2017-05-24T09:37:38.000Z</time>
      </trkpt>
      <trkpt lat="43.75148" lon="6.3203">
        <ele>831.59997558594</ele>
        <time>2017-05-24T09:37:49.000Z</time>
      </trkpt>
      <trkpt lat="43.75145" lon="6.32033">
        <ele>832.20001220703</ele>
        <time>2017-05-24T09:38:08.000Z</time>
      </trkpt>
      <trkpt lat="43.75143" lon="6.32034">
        <ele>832.79998779297</ele>
        <time>2017-05-24T09:38:09.000Z</time>
      </trkpt>
      <trkpt lat="43.75139" lon="6.32037">
        <ele>833.59997558594</ele>
        <time>2017-05-24T09:38:11.000Z</time>
      </trkpt>
      <trkpt lat="43.75138" lon="6.3204">
        <ele>833.59997558594</ele>
        <time>2017-05-24T09:38:40.000Z</time>
      </trkpt>
      <trkpt lat="43.75137" lon="6.32043">
        <ele>833.59997558594</ele>
        <time>2017-05-24T09:38:41.000Z</time>
      </trkpt>
      <trkpt lat="43.75124" lon="6.32083">
        <ele>834.20001220703</ele>
        <time>2017-05-24T09:38:47.000Z</time>
      </trkpt>
      <trkpt lat="43.75117" lon="6.3211">
        <ele>830</ele>
        <time>2017-05-24T09:38:57.000Z</time>
      </trkpt>
      <trkpt lat="43.75109" lon="6.32106">
        <ele>833.20001220703</ele>
        <time>2017-05-24T09:39:09.000Z</time>
      </trkpt>
      <trkpt lat="43.75108" lon="6.32109">
        <ele>833</ele>
        <time>2017-05-24T09:40:06.000Z</time>
      </trkpt>
      <trkpt lat="43.75108" lon="6.32111">
        <ele>833</ele>
        <time>2017-05-24T09:40:07.000Z</time>
      </trkpt>
      <trkpt lat="43.75102" lon="6.32134">
        <ele>829.79998779297</ele>
        <time>2017-05-24T09:40:10.000Z</time>
      </trkpt>
      <trkpt lat="43.75083" lon="6.32147">
        <ele>827.40002441406</ele>
        <time>2017-05-24T09:40:25.000Z</time>
      </trkpt>
      <trkpt lat="43.7507" lon="6.32152">
        <ele>818</ele>
        <time>2017-05-24T09:40:42.000Z</time>
      </trkpt>
      <trkpt lat="43.75064" lon="6.32148">
        <ele>817.40002441406</ele>
        <time>2017-05-24T09:41:31.000Z</time>
      </trkpt>
      <trkpt lat="43.75061" lon="6.32145">
        <ele>817.79998779297</ele>
        <time>2017-05-24T09:41:32.000Z</time>
      </trkpt>
      <trkpt lat="43.75034" lon="6.32114">
        <ele>834.59997558594</ele>
        <time>2017-05-24T09:41:49.000Z</time>
      </trkpt>
      <trkpt lat="43.75029" lon="6.32111">
        <ele>837.59997558594</ele>
        <time>2017-05-24T09:41:56.000Z</time>
      </trkpt>
      <trkpt lat="43.75026" lon="6.32111">
        <ele>838.20001220703</ele>
        <time>2017-05-24T09:42:26.000Z</time>
      </trkpt>
      <trkpt lat="43.75024" lon="6.32111">
        <ele>838.59997558594</ele>
        <time>2017-05-24T09:42:27.000Z</time>
      </trkpt>
      <trkpt lat="43.74991" lon="6.3211">
        <ele>843.59997558594</ele>
        <time>2017-05-24T09:42:39.000Z</time>
      </trkpt>
      <trkpt lat="43.7498" lon="6.32114">
        <ele>844.79998779297</ele>
        <time>2017-05-24T09:42:51.000Z</time>
      </trkpt>
      <trkpt lat="43.74969" lon="6.32118">
        <ele>848.59997558594</ele>
        <time>2017-05-24T09:42:58.000Z</time>
      </trkpt>
      <trkpt lat="43.74967" lon="6.32132">
        <ele>845.79998779297</ele>
        <time>2017-05-24T09:43:07.000Z</time>
      </trkpt>
      <trkpt lat="43.7496" lon="6.32156">
        <ele>838</ele>
        <time>2017-05-24T09:43:19.000Z</time>
      </trkpt>
      <trkpt lat="43.74944" lon="6.32168">
        <ele>837</ele>
        <time>2017-05-24T09:43:33.000Z</time>
      </trkpt>
      <trkpt lat="43.74944" lon="6.32166">
        <ele>839.40002441406</ele>
        <time>2017-05-24T09:43:37.000Z</time>
      </trkpt>
      <trkpt lat="43.74941" lon="6.32166">
        <ele>840.20001220703</ele>
        <time>2017-05-24T09:44:30.000Z</time>
      </trkpt>
      <trkpt lat="43.7494" lon="6.32167">
        <ele>840.59997558594</ele>
        <time>2017-05-24T09:44:31.000Z</time>
      </trkpt>
      <trkpt lat="43.74905" lon="6.32168">
        <ele>858.20001220703</ele>
        <time>2017-05-24T09:44:46.000Z</time>
      </trkpt>
      <trkpt lat="43.74878" lon="6.32172">
        <ele>874</ele>
        <time>2017-05-24T09:45:07.000Z</time>
      </trkpt>
      <trkpt lat="43.74873" lon="6.32176">
        <ele>874.79998779297</ele>
        <time>2017-05-24T09:45:20.000Z</time>
      </trkpt>
      <trkpt lat="43.7487" lon="6.32178">
        <ele>875.40002441406</ele>
        <time>2017-05-24T09:45:21.000Z</time>
      </trkpt>
      <trkpt lat="43.74837" lon="6.32198">
        <ele>869.40002441406</ele>
        <time>2017-05-24T09:45:36.000Z</time>
      </trkpt>
      <trkpt lat="43.74806" lon="6.32222">
        <ele>855.59997558594</ele>
        <time>2017-05-24T09:46:02.000Z</time>
      </trkpt>
      <trkpt lat="43.74783" lon="6.32248">
        <ele>849.20001220703</ele>
        <time>2017-05-24T09:46:26.000Z</time>
      </trkpt>
      <trkpt lat="43.74781" lon="6.3225">
        <ele>846.20001220703</ele>
        <time>2017-05-24T09:47:11.000Z</time>
      </trkpt>
      <trkpt lat="43.7478" lon="6.32252">
        <ele>844</ele>
        <time>2017-05-24T09:47:12.000Z</time>
      </trkpt>
      <trkpt lat="43.74752" lon="6.32282">
        <ele>846.20001220703</ele>
        <time>2017-05-24T09:47:26.000Z</time>
      </trkpt>
      <trkpt lat="43.74718" lon="6.32269">
        <ele>855</ele>
        <time>2017-05-24T09:47:53.000Z</time>
      </trkpt>
      <trkpt lat="43.74683" lon="6.32261">
        <ele>861.20001220703</ele>
        <time>2017-05-24T09:48:16.000Z</time>
      </trkpt>
      <trkpt lat="43.74669" lon="6.32308">
        <ele>845</ele>
        <time>2017-05-24T09:48:35.000Z</time>
      </trkpt>
      <trkpt lat="43.74664" lon="6.32334">
        <ele>840.40002441406</ele>
        <time>2017-05-24T09:48:48.000Z</time>
      </trkpt>
      <trkpt lat="43.74641" lon="6.32341">
        <ele>850.59997558594</ele>
        <time>2017-05-24T09:49:05.000Z</time>
      </trkpt>
      <trkpt lat="43.74606" lon="6.32342">
        <ele>860.20001220703</ele>
        <time>2017-05-24T09:49:32.000Z</time>
      </trkpt>
      <trkpt lat="43.74571" lon="6.32349">
        <ele>847.20001220703</ele>
        <time>2017-05-24T09:49:56.000Z</time>
      </trkpt>
      <trkpt lat="43.7454" lon="6.32345">
        <ele>850</ele>
        <time>2017-05-24T09:50:24.000Z</time>
      </trkpt>
      <trkpt lat="43.74504" lon="6.32345">
        <ele>857.40002441406</ele>
        <time>2017-05-24T09:50:46.000Z</time>
      </trkpt>
      <trkpt lat="43.74484" lon="6.32348">
        <ele>867.40002441406</ele>
        <time>2017-05-24T09:51:03.000Z</time>
      </trkpt>
      <trkpt lat="43.74475" lon="6.32364">
        <ele>867.59997558594</ele>
        <time>2017-05-24T09:51:17.000Z</time>
      </trkpt>
      <trkpt lat="43.74456" lon="6.32401">
        <ele>869.79998779297</ele>
        <time>2017-05-24T09:51:38.000Z</time>
      </trkpt>
      <trkpt lat="43.74449" lon="6.32423">
        <ele>873</ele>
        <time>2017-05-24T09:51:51.000Z</time>
      </trkpt>
      <trkpt lat="43.74458" lon="6.32443">
        <ele>864.40002441406</ele>
        <time>2017-05-24T09:52:01.000Z</time>
      </trkpt>
      <trkpt lat="43.74465" lon="6.32483">
        <ele>861.79998779297</ele>
        <time>2017-05-24T09:52:23.000Z</time>
      </trkpt>
      <trkpt lat="43.74472" lon="6.32513">
        <ele>858.79998779297</ele>
        <time>2017-05-24T09:52:35.000Z</time>
      </trkpt>
      <trkpt lat="43.74466" lon="6.32532">
        <ele>862.59997558594</ele>
        <time>2017-05-24T09:52:43.000Z</time>
      </trkpt>
      <trkpt lat="43.74461" lon="6.32544">
        <ele>866.40002441406</ele>
        <time>2017-05-24T09:52:57.000Z</time>
      </trkpt>
      <trkpt lat="43.74461" lon="6.32545">
        <ele>866.40002441406</ele>
        <time>2017-05-24T09:55:05.000Z</time>
      </trkpt>
      <trkpt lat="43.74461" lon="6.32546">
        <ele>866.20001220703</ele>
        <time>2017-05-24T09:55:06.000Z</time>
      </trkpt>
      <trkpt lat="43.74454" lon="6.32591">
        <ele>861</ele>
        <time>2017-05-24T09:55:17.000Z</time>
      </trkpt>
      <trkpt lat="43.74452" lon="6.32604">
        <ele>860.20001220703</ele>
        <time>2017-05-24T09:55:25.000Z</time>
      </trkpt>
      <trkpt lat="43.74449" lon="6.32609">
        <ele>860.20001220703</ele>
        <time>2017-05-24T09:55:42.000Z</time>
      </trkpt>
      <trkpt lat="43.74446" lon="6.32612">
        <ele>859.79998779297</ele>
        <time>2017-05-24T09:55:43.000Z</time>
      </trkpt>
      <trkpt lat="43.74422" lon="6.32645">
        <ele>864.40002441406</ele>
        <time>2017-05-24T09:55:58.000Z</time>
      </trkpt>
      <trkpt lat="43.74408" lon="6.32662">
        <ele>871</ele>
        <time>2017-05-24T09:56:13.000Z</time>
      </trkpt>
      <trkpt lat="43.74405" lon="6.32685">
        <ele>868.40002441406</ele>
        <time>2017-05-24T09:56:24.000Z</time>
      </trkpt>
      <trkpt lat="43.7441" lon="6.3273">
        <ele>857.40002441406</ele>
        <time>2017-05-24T09:56:45.000Z</time>
      </trkpt>
      <trkpt lat="43.74413" lon="6.32761">
        <ele>858.59997558594</ele>
        <time>2017-05-24T09:56:59.000Z</time>
      </trkpt>
      <trkpt lat="43.74422" lon="6.32794">
        <ele>850</ele>
        <time>2017-05-24T09:57:36.000Z</time>
      </trkpt>
      <trkpt lat="43.74423" lon="6.32797">
        <ele>849</ele>
        <time>2017-05-24T09:57:37.000Z</time>
      </trkpt>
      <trkpt lat="43.74425" lon="6.32813">
        <ele>843.40002441406</ele>
        <time>2017-05-24T09:57:42.000Z</time>
      </trkpt>
      <trkpt lat="43.74412" lon="6.32845">
        <ele>848.79998779297</ele>
        <time>2017-05-24T09:58:00.000Z</time>
      </trkpt>
      <trkpt lat="43.744" lon="6.32868">
        <ele>852.20001220703</ele>
        <time>2017-05-24T09:58:14.000Z</time>
      </trkpt>
      <trkpt lat="43.74406" lon="6.32894">
        <ele>847</ele>
        <time>2017-05-24T09:58:27.000Z</time>
      </trkpt>
      <trkpt lat="43.74421" lon="6.32939">
        <ele>841.20001220703</ele>
        <time>2017-05-24T09:58:50.000Z</time>
      </trkpt>
      <trkpt lat="43.74408" lon="6.32985">
        <ele>848.40002441406</ele>
        <time>2017-05-24T09:59:13.000Z</time>
      </trkpt>
      <trkpt lat="43.74389" lon="6.33027">
        <ele>852</ele>
        <time>2017-05-24T09:59:39.000Z</time>
      </trkpt>
      <trkpt lat="43.74382" lon="6.33038">
        <ele>852.20001220703</ele>
        <time>2017-05-24T09:59:47.000Z</time>
      </trkpt>
      <trkpt lat="43.74386" lon="6.33077">
        <ele>847</ele>
        <time>2017-05-24T10:00:05.000Z</time>
      </trkpt>
      <trkpt lat="43.74363" lon="6.33117">
        <ele>847.20001220703</ele>
        <time>2017-05-24T10:00:31.000Z</time>
      </trkpt>
      <trkpt lat="43.74357" lon="6.33144">
        <ele>846</ele>
        <time>2017-05-24T10:00:44.000Z</time>
      </trkpt>
      <trkpt lat="43.74353" lon="6.33171">
        <ele>844.20001220703</ele>
        <time>2017-05-24T10:00:58.000Z</time>
      </trkpt>
      <trkpt lat="43.74343" lon="6.33194">
        <ele>844.59997558594</ele>
        <time>2017-05-24T10:01:12.000Z</time>
      </trkpt>
      <trkpt lat="43.74333" lon="6.33218">
        <ele>841.59997558594</ele>
        <time>2017-05-24T10:01:25.000Z</time>
      </trkpt>
      <trkpt lat="43.74326" lon="6.33243">
        <ele>838.79998779297</ele>
        <time>2017-05-24T10:01:38.000Z</time>
      </trkpt>
      <trkpt lat="43.74311" lon="6.33289">
        <ele>837</ele>
        <time>2017-05-24T10:02:01.000Z</time>
      </trkpt>
      <trkpt lat="43.74307" lon="6.33301">
        <ele>836.59997558594</ele>
        <time>2017-05-24T10:02:07.000Z</time>
      </trkpt>
      <trkpt lat="43.74303" lon="6.33337">
        <ele>834.40002441406</ele>
        <time>2017-05-24T10:02:25.000Z</time>
      </trkpt>
      <trkpt lat="43.74297" lon="6.33362">
        <ele>833.79998779297</ele>
        <time>2017-05-24T10:02:39.000Z</time>
      </trkpt>
      <trkpt lat="43.74289" lon="6.33383">
        <ele>833.79998779297</ele>
        <time>2017-05-24T10:02:51.000Z</time>
      </trkpt>
      <trkpt lat="43.74276" lon="6.3343">
        <ele>831</ele>
        <time>2017-05-24T10:03:13.000Z</time>
      </trkpt>
      <trkpt lat="43.74257" lon="6.33475">
        <ele>828.40002441406</ele>
        <time>2017-05-24T10:03:38.000Z</time>
      </trkpt>
      <trkpt lat="43.74246" lon="6.33514">
        <ele>828.20001220703</ele>
        <time>2017-05-24T10:03:58.000Z</time>
      </trkpt>
      <trkpt lat="43.7424" lon="6.33512">
        <ele>829.40002441406</ele>
        <time>2017-05-24T10:04:07.000Z</time>
      </trkpt>
      <trkpt lat="43.74239" lon="6.3352">
        <ele>829.20001220703</ele>
        <time>2017-05-24T10:06:05.000Z</time>
      </trkpt>
      <trkpt lat="43.74239" lon="6.33525">
        <ele>829.20001220703</ele>
        <time>2017-05-24T10:06:06.000Z</time>
      </trkpt>
      <trkpt lat="43.74227" lon="6.33571">
        <ele>827.40002441406</ele>
        <time>2017-05-24T10:06:23.000Z</time>
      </trkpt>
      <trkpt lat="43.7422" lon="6.33621">
        <ele>821.59997558594</ele>
        <time>2017-05-24T10:06:45.000Z</time>
      </trkpt>
      <trkpt lat="43.74211" lon="6.3367">
        <ele>817.79998779297</ele>
        <time>2017-05-24T10:07:10.000Z</time>
      </trkpt>
      <trkpt lat="43.74196" lon="6.33715">
        <ele>816.40002441406</ele>
        <time>2017-05-24T10:07:33.000Z</time>
      </trkpt>
      <trkpt lat="43.74188" lon="6.33744">
        <ele>815</ele>
        <time>2017-05-24T10:07:48.000Z</time>
      </trkpt>
      <trkpt lat="43.7418" lon="6.33761">
        <ele>814.40002441406</ele>
        <time>2017-05-24T10:07:57.000Z</time>
      </trkpt>
      <trkpt lat="43.74157" lon="6.338">
        <ele>812.40002441406</ele>
        <time>2017-05-24T10:08:21.000Z</time>
      </trkpt>
      <trkpt lat="43.74135" lon="6.33839">
        <ele>811.40002441406</ele>
        <time>2017-05-24T10:08:44.000Z</time>
      </trkpt>
      <trkpt lat="43.74129" lon="6.33859">
        <ele>810.40002441406</ele>
        <time>2017-05-24T10:08:54.000Z</time>
      </trkpt>
      <trkpt lat="43.74131" lon="6.33889">
        <ele>807.40002441406</ele>
        <time>2017-05-24T10:09:07.000Z</time>
      </trkpt>
      <trkpt lat="43.74145" lon="6.33934">
        <ele>803</ele>
        <time>2017-05-24T10:09:29.000Z</time>
      </trkpt>
      <trkpt lat="43.74165" lon="6.33976">
        <ele>797</ele>
        <time>2017-05-24T10:09:55.000Z</time>
      </trkpt>
      <trkpt lat="43.74177" lon="6.34023">
        <ele>790.40002441406</ele>
        <time>2017-05-24T10:10:18.000Z</time>
      </trkpt>
      <trkpt lat="43.74178" lon="6.34045">
        <ele>788.79998779297</ele>
        <time>2017-05-24T10:10:30.000Z</time>
      </trkpt>
      <trkpt lat="43.74167" lon="6.34071">
        <ele>792.20001220703</ele>
        <time>2017-05-24T10:10:48.000Z</time>
      </trkpt>
      <trkpt lat="43.74133" lon="6.34091">
        <ele>794.40002441406</ele>
        <time>2017-05-24T10:11:16.000Z</time>
      </trkpt>
      <trkpt lat="43.74133" lon="6.34094">
        <ele>793.40002441406</ele>
        <time>2017-05-24T10:11:21.000Z</time>
      </trkpt>
      <trkpt lat="43.74124" lon="6.34095">
        <ele>793</ele>
        <time>2017-05-24T10:12:03.000Z</time>
      </trkpt>
      <trkpt lat="43.7412" lon="6.34096">
        <ele>792.79998779297</ele>
        <time>2017-05-24T10:12:04.000Z</time>
      </trkpt>
      <trkpt lat="43.74084" lon="6.34094">
        <ele>796.59997558594</ele>
        <time>2017-05-24T10:12:22.000Z</time>
      </trkpt>
      <trkpt lat="43.74048" lon="6.3409">
        <ele>800.20001220703</ele>
        <time>2017-05-24T10:12:45.000Z</time>
      </trkpt>
      <trkpt lat="43.74012" lon="6.34088">
        <ele>801.79998779297</ele>
        <time>2017-05-24T10:13:09.000Z</time>
      </trkpt>
      <trkpt lat="43.73977" lon="6.34093">
        <ele>804.59997558594</ele>
        <time>2017-05-24T10:13:32.000Z</time>
      </trkpt>
      <trkpt lat="43.73941" lon="6.3409">
        <ele>809.40002441406</ele>
        <time>2017-05-24T10:13:54.000Z</time>
      </trkpt>
      <trkpt lat="43.73927" lon="6.341">
        <ele>809.40002441406</ele>
        <time>2017-05-24T10:14:05.000Z</time>
      </trkpt>
      <trkpt lat="43.73915" lon="6.34125">
        <ele>806.20001220703</ele>
        <time>2017-05-24T10:14:19.000Z</time>
      </trkpt>
      <trkpt lat="43.73894" lon="6.34167">
        <ele>804.40002441406</ele>
        <time>2017-05-24T10:14:41.000Z</time>
      </trkpt>
      <trkpt lat="43.73875" lon="6.3421">
        <ele>801.79998779297</ele>
        <time>2017-05-24T10:15:03.000Z</time>
      </trkpt>
      <trkpt lat="43.73863" lon="6.34258">
        <ele>799.79998779297</ele>
        <time>2017-05-24T10:15:27.000Z</time>
      </trkpt>
      <trkpt lat="43.73847" lon="6.34302">
        <ele>795.59997558594</ele>
        <time>2017-05-24T10:15:52.000Z</time>
      </trkpt>
      <trkpt lat="43.73825" lon="6.34342">
        <ele>794.59997558594</ele>
        <time>2017-05-24T10:16:16.000Z</time>
      </trkpt>
      <trkpt lat="43.73814" lon="6.34356">
        <ele>794</ele>
        <time>2017-05-24T10:16:26.000Z</time>
      </trkpt>
      <trkpt lat="43.73803" lon="6.34381">
        <ele>793</ele>
        <time>2017-05-24T10:16:40.000Z</time>
      </trkpt>
      <trkpt lat="43.73784" lon="6.34425">
        <ele>792</ele>
        <time>2017-05-24T10:17:03.000Z</time>
      </trkpt>
      <trkpt lat="43.73782" lon="6.34454">
        <ele>793</ele>
        <time>2017-05-24T10:17:22.000Z</time>
      </trkpt>
      <trkpt lat="43.73778" lon="6.34458">
        <ele>793.59997558594</ele>
        <time>2017-05-24T10:17:42.000Z</time>
      </trkpt>
      <trkpt lat="43.73775" lon="6.34461">
        <ele>793.59997558594</ele>
        <time>2017-05-24T10:17:43.000Z</time>
      </trkpt>
      <trkpt lat="43.73748" lon="6.34493">
        <ele>793.79998779297</ele>
        <time>2017-05-24T10:18:01.000Z</time>
      </trkpt>
      <trkpt lat="43.73735" lon="6.34511">
        <ele>794.79998779297</ele>
        <time>2017-05-24T10:18:19.000Z</time>
      </trkpt>
      <trkpt lat="43.73726" lon="6.34524">
        <ele>795.20001220703</ele>
        <time>2017-05-24T10:18:35.000Z</time>
      </trkpt>
      <trkpt lat="43.73726" lon="6.34524">
        <ele>795.20001220703</ele>
        <time>2017-05-24T10:18:36.000Z</time>
      </trkpt>
    </trkseg>
  </trk>
</gpx>